Observation data for Fort McKavett on 05/23/2020      Previous  Date  Next       Current Mesonet Observations  Soil Data  Daily Summary Page  Observations in Plain Language
KMC1 230500Z 15007G12KT 27/20 A2984 RMK A01 T02680196  RH  065%=      5-min Rain = 0
KMC1 230501Z 15009KT 27/20 A2984 RMK A01 T02680196  RH  065%=      5-min Rain = 0
KMC1 230502Z 14011G17KT 27/20 A2984 RMK A01 T02680196  RH  065%=      5-min Rain = 0
KMC1 230503Z 13009G14KT 27/20 A2984 RMK A01 T02680196  RH  065%=      5-min Rain = 0
KMC1 230504Z 14011KT 27/20 A2984 RMK A01 T02680196  RH  065%=      5-min Rain = 0
KMC1 230505Z 15008G17KT 27/20 A2984 RMK A01 T02680196  RH  065%=      5-min Rain = 0
KMC1 230506Z 14011KT 27/20 A2984 RMK A01 T02680196  RH  065%=      5-min Rain = 0
KMC1 230507Z 14008G14KT 27/20 A2984 RMK A01 T02670197  RH  065%=      5-min Rain = 0
KMC1 230508Z 14008KT 27/20 A2984 RMK A01 T02670197  RH  065%=      5-min Rain = 0
KMC1 230509Z 14007G13KT 27/20 A2984 RMK A01 T02670197  RH  065%=      5-min Rain = 0
KMC1 230510Z 14009KT 27/20 A2984 RMK A01 T02660197  RH  066%=      5-min Rain = 0
KMC1 230511Z 16005KT 27/20 A2984 RMK A01 T02660198  RH  066%=      5-min Rain = 0
KMC1 230512Z 16009KT 27/20 A2984 RMK A01 T02660198  RH  066%=      5-min Rain = 0
KMC1 230513Z 16007KT 27/20 A2984 RMK A01 T02650198  RH  066%=      5-min Rain = 0
KMC1 230514Z 16005KT 27/20 A2984 RMK A01 T02650198  RH  067%=      5-min Rain = 0
KMC1 230515Z 16007KT 26/20 A2984 RMK A01 T02640198  RH  067%=      5-min Rain = 0
KMC1 230516Z 16008G13KT 26/20 A2984 RMK A01 T02640199  RH  067%=      5-min Rain = 0
KMC1 230517Z 15011G20KT 26/20 A2984 RMK A01 T02640199  RH  068%=      5-min Rain = 0
KMC1 230518Z 14011KT 26/20 A2984 RMK A01 T02640200  RH  068%=      5-min Rain = 0
KMC1 230519Z 15007KT 27/20 A2984 RMK A01 T02650200  RH  068%=      5-min Rain = 0
KMC1 230520Z 15008KT 26/20 A2984 RMK A01 T02640200  RH  068%=      5-min Rain = 0
KMC1 230521Z 15008KT 26/20 A2984 RMK A01 T02640200  RH  068%=      5-min Rain = 0
KMC1 230522Z 15010G15KT 26/20 A2984 RMK A01 T02640200  RH  068%=      5-min Rain = 0
KMC1 230523Z 16008G13KT 26/20 A2984 RMK A01 T02640201  RH  068%=      5-min Rain = 0
KMC1 230524Z 16010KT 26/20 A2984 RMK A01 T02640201  RH  068%=      5-min Rain = 0
KMC1 230525Z 16012G17KT 26/20 A2984 RMK A01 T02640201  RH  068%=      5-min Rain = 0
KMC1 230526Z 16007KT 26/20 A2985 RMK A01 T02640201  RH  068%=      5-min Rain = 0
KMC1 230527Z 17011KT 26/20 A2985 RMK A01 T02640202  RH  069%=      5-min Rain = 0
KMC1 230528Z 15009KT 26/20 A2985 RMK A01 T02640202  RH  069%=      5-min Rain = 0
KMC1 230529Z 15010KT 26/20 A2985 RMK A01 T02640202  RH  069%=      5-min Rain = 0
KMC1 230530Z 15009KT 26/20 A2984 RMK A01 T02640202  RH  069%=      5-min Rain = 0
KMC1 230531Z 15008KT 26/20 A2984 RMK A01 T02630202  RH  069%=      5-min Rain = 0
KMC1 230532Z 15008KT 26/20 A2984 RMK A01 T02630202  RH  069%=      5-min Rain = 0
KMC1 230533Z 16008KT 26/20 A2984 RMK A01 T02630203  RH  069%=      5-min Rain = 0
KMC1 230534Z 16010G15KT 26/20 A2984 RMK A01 T02630203  RH  069%=      5-min Rain = 0
KMC1 230535Z 14013G19KT 26/20 A2984 RMK A01 T02630203  RH  070%=      5-min Rain = 0
KMC1 230536Z 16008G13KT 26/20 A2984 RMK A01 T02630203  RH  070%=      5-min Rain = 0
KMC1 230537Z 15006G11KT 26/20 A2984 RMK A01 T02630204  RH  070%=      5-min Rain = 0
KMC1 230538Z 15010G17KT 26/20 A2984 RMK A01 T02620203  RH  070%=      5-min Rain = 0
KMC1 230539Z 16009KT 26/20 A2984 RMK A01 T02620204  RH  070%=      5-min Rain = 0
KMC1 230540Z 16007KT 26/20 A2984 RMK A01 T02620204  RH  070%=      5-min Rain = 0
KMC1 230541Z 15008KT 26/20 A2984 RMK A01 T02620204  RH  071%=      5-min Rain = 0
KMC1 230542Z 15010G15KT 26/20 A2984 RMK A01 T02610204  RH  071%=      5-min Rain = 0
KMC1 230543Z 15011KT 26/20 A2983 RMK A01 T02610204  RH  071%=      5-min Rain = 0
KMC1 230544Z 16010KT 26/20 A2983 RMK A01 T02610204  RH  071%=      5-min Rain = 0
KMC1 230545Z 16008KT 26/20 A2983 RMK A01 T02610204  RH  071%=      5-min Rain = 0
KMC1 230546Z 16009G17KT 26/20 A2983 RMK A01 T02610204  RH  071%=      5-min Rain = 0
KMC1 230547Z 15010KT 26/21 A2983 RMK A01 T02620205  RH  071%=      5-min Rain = 0
KMC1 230548Z 16008KT 26/20 A2983 RMK A01 T02610204  RH  071%=      5-min Rain = 0
KMC1 230549Z 16008G13KT 26/20 A2983 RMK A01 T02610204  RH  071%=      5-min Rain = 0
KMC1 230550Z 16009G15KT 26/21 A2983 RMK A01 T02610205  RH  071%=      5-min Rain = 0
KMC1 230551Z 16006G13KT 26/21 A2983 RMK A01 T02610205  RH  071%=      5-min Rain = 0
KMC1 230552Z 16011KT 26/21 A2983 RMK A01 T02600205  RH  071%=      5-min Rain = 0
KMC1 230553Z 16011KT 26/21 A2983 RMK A01 T02600205  RH  071%=      5-min Rain = 0
KMC1 230554Z 16010KT 26/21 A2983 RMK A01 T02600205  RH  071%=      5-min Rain = 0
KMC1 230555Z 16009KT 26/21 A2983 RMK A01 T02600205  RH  072%=      5-min Rain = 0
KMC1 230556Z 16007KT 26/21 A2983 RMK A01 T02600205  RH  072%=      5-min Rain = 0
KMC1 230557Z 17009G15KT 26/21 A2983 RMK A01 T02600205  RH  072%=      5-min Rain = 0
KMC1 230558Z 17010KT 26/21 A2983 RMK A01 T02590205  RH  072%=      5-min Rain = 0
KMC1 230559Z 17012KT 26/21 A2983 RMK A01 T02590205  RH  072%=      5-min Rain = 0
KMC1 230600Z 17011KT 26/21 A2983 RMK A01 T02600205  RH  072%=      5-min Rain = 0
KMC1 230601Z 16009G14KT 26/21 A2983 RMK A01 T02600205  RH  072%=      5-min Rain = 0
KMC1 230602Z 16009KT 26/21 A2983 RMK A01 T02600206  RH  072%=      5-min Rain = 0
KMC1 230603Z 16011KT 26/21 A2983 RMK A01 T02590206  RH  072%=      5-min Rain = 0
KMC1 230604Z 17009KT 26/21 A2983 RMK A01 T02590206  RH  072%=      5-min Rain = 0
KMC1 230605Z 16009KT 26/21 A2983 RMK A01 T02590206  RH  072%=      5-min Rain = 0
KMC1 230606Z 16008KT 26/21 A2983 RMK A01 T02590206  RH  073%=      5-min Rain = 0
KMC1 230607Z 16009KT 26/21 A2983 RMK A01 T02590206  RH  073%=      5-min Rain = 0
KMC1 230608Z 15008KT 26/21 A2983 RMK A01 T02580206  RH  073%=      5-min Rain = 0
KMC1 230609Z 16008KT 26/21 A2983 RMK A01 T02580206  RH  073%=      5-min Rain = 0
KMC1 230610Z 16010KT 26/21 A2983 RMK A01 T02580207  RH  073%=      5-min Rain = 0
KMC1 230611Z 17009KT 26/21 A2983 RMK A01 T02580207  RH  073%=      5-min Rain = 0
KMC1 230612Z 16009KT 26/21 A2983 RMK A01 T02580207  RH  073%=      5-min Rain = 0
KMC1 230613Z 16011G19KT 26/21 A2983 RMK A01 T02580207  RH  073%=      5-min Rain = 0
KMC1 230614Z 17009G14KT 26/21 A2983 RMK A01 T02580207  RH  074%=      5-min Rain = 0
KMC1 230615Z 17010G15KT 26/21 A2983 RMK A01 T02580207  RH  074%=      5-min Rain = 0
KMC1 230616Z 17010G15KT 26/21 A2983 RMK A01 T02580208  RH  074%=      5-min Rain = 0
KMC1 230617Z 17008KT 26/21 A2983 RMK A01 T02580208  RH  074%=      5-min Rain = 0
KMC1 230618Z 17010KT 26/21 A2983 RMK A01 T02580208  RH  074%=      5-min Rain = 0
KMC1 230619Z 17008KT 26/21 A2983 RMK A01 T02580208  RH  074%=      5-min Rain = 0
KMC1 230620Z 16009KT 26/21 A2983 RMK A01 T02580208  RH  074%=      5-min Rain = 0
KMC1 230621Z 16010KT 26/21 A2982 RMK A01 T02570208  RH  074%=      5-min Rain = 0
KMC1 230622Z 16009KT 26/21 A2982 RMK A01 T02570208  RH  074%=      5-min Rain = 0
KMC1 230623Z 16007KT 26/21 A2982 RMK A01 T02570208  RH  074%=      5-min Rain = 0
KMC1 230624Z 16008KT 26/21 A2983 RMK A01 T02570209  RH  075%=      5-min Rain = 0
KMC1 230625Z 16007KT 26/21 A2983 RMK A01 T02570208  RH  075%=      5-min Rain = 0
KMC1 230626Z 15006KT 26/21 A2983 RMK A01 T02560209  RH  075%=      5-min Rain = 0
KMC1 230627Z 16006KT 26/21 A2983 RMK A01 T02560209  RH  075%=      5-min Rain = 0
KMC1 230628Z 15007KT 26/21 A2983 RMK A01 T02560208  RH  075%=      5-min Rain = 0
KMC1 230629Z 15008KT 26/21 A2983 RMK A01 T02560209  RH  075%=      5-min Rain = 0
KMC1 230630Z 15008KT 26/21 A2983 RMK A01 T02560209  RH  075%=      5-min Rain = 0
KMC1 230631Z 15007KT 26/21 A2983 RMK A01 T02560209  RH  075%=      5-min Rain = 0
KMC1 230632Z 16007KT 26/21 A2983 RMK A01 T02550209  RH  075%=      5-min Rain = 0
KMC1 230633Z 15007KT 26/21 A2983 RMK A01 T02560209  RH  076%=      5-min Rain = 0
KMC1 230634Z 15006KT 26/21 A2983 RMK A01 T02550209  RH  076%=      5-min Rain = 0
KMC1 230635Z 14005KT 26/21 A2983 RMK A01 T02550209  RH  076%=      5-min Rain = 0
KMC1 230636Z 15008KT 25/21 A2983 RMK A01 T02540209  RH  076%=      5-min Rain = 0
KMC1 230637Z 15005KT 25/21 A2983 RMK A01 T02540209  RH  076%=      5-min Rain = 0
KMC1 230638Z 13008G13KT 25/21 A2983 RMK A01 T02540209  RH  076%=      5-min Rain = 0
KMC1 230639Z 14007KT 25/21 A2983 RMK A01 T02540210  RH  076%=      5-min Rain = 0
KMC1 230640Z 14006KT 25/21 A2983 RMK A01 T02540210  RH  076%=      5-min Rain = 0
KMC1 230641Z 14007KT 25/21 A2983 RMK A01 T02540210  RH  076%=      5-min Rain = 0
KMC1 230642Z 13008KT 25/21 A2983 RMK A01 T02540210  RH  077%=      5-min Rain = 0
KMC1 230643Z 13009KT 25/21 A2983 RMK A01 T02540210  RH  077%=      5-min Rain = 0
KMC1 230644Z 14007KT 25/21 A2984 RMK A01 T02540211  RH  077%=      5-min Rain = 0
KMC1 230645Z 14008KT 25/21 A2984 RMK A01 T02540210  RH  077%=      5-min Rain = 0
KMC1 230646Z 15004KT 25/21 A2984 RMK A01 T02540210  RH  077%=      5-min Rain = 0
KMC1 230647Z 15005KT 25/21 A2984 RMK A01 T02540210  RH  077%=      5-min Rain = 0
KMC1 230648Z 13005KT 25/21 A2984 RMK A01 T02530210  RH  077%=      5-min Rain = 0
KMC1 230649Z 13009KT 25/21 A2984 RMK A01 T02530210  RH  077%=      5-min Rain = 0
KMC1 230650Z 13007KT 25/21 A2984 RMK A01 T02530211  RH  077%=      5-min Rain = 0
KMC1 230651Z 13006KT 25/21 A2984 RMK A01 T02530210  RH  077%=      5-min Rain = 0
KMC1 230652Z 14009KT 25/21 A2984 RMK A01 T02520211  RH  078%=      5-min Rain = 0
KMC1 230653Z 14007KT 25/21 A2984 RMK A01 T02530211  RH  078%=      5-min Rain = 0
KMC1 230654Z 14006KT 25/21 A2984 RMK A01 T02530211  RH  078%=      5-min Rain = 0
KMC1 230655Z 13008KT 25/21 A2984 RMK A01 T02520211  RH  078%=      5-min Rain = 0
KMC1 230656Z 13006KT 25/21 A2984 RMK A01 T02520211  RH  078%=      5-min Rain = 0
KMC1 230657Z 14005KT 25/21 A2984 RMK A01 T02520211  RH  078%=      5-min Rain = 0
KMC1 230658Z 14006KT 25/21 A2984 RMK A01 T02520211  RH  078%=      5-min Rain = 0
KMC1 230659Z 14006KT 25/21 A2984 RMK A01 T02510211  RH  078%=      5-min Rain = 0
KMC1 230700Z 13006KT 25/21 A2984 RMK A01 T02510211  RH  079%=      5-min Rain = 0
KMC1 230701Z 14010KT 25/21 A2984 RMK A01 T02510211  RH  079%=      5-min Rain = 0
KMC1 230702Z 14005G10KT 25/21 A2984 RMK A01 T02510212  RH  079%=      5-min Rain = 0
KMC1 230703Z 14007KT 25/21 A2984 RMK A01 T02510211  RH  079%=      5-min Rain = 0
KMC1 230704Z 15005KT 25/21 A2984 RMK A01 T02510211  RH  079%=      5-min Rain = 0
KMC1 230705Z 16007KT 25/21 A2984 RMK A01 T02510212  RH  079%=      5-min Rain = 0
KMC1 230706Z 14007KT 25/21 A2983 RMK A01 T02500212  RH  079%=      5-min Rain = 0
KMC1 230707Z 14007KT 25/21 A2983 RMK A01 T02500212  RH  079%=      5-min Rain = 0
KMC1 230708Z 15005KT 25/21 A2983 RMK A01 T02500212  RH  079%=      5-min Rain = 0
KMC1 230709Z 15008KT 25/21 A2983 RMK A01 T02500212  RH  079%=      5-min Rain = 0
KMC1 230710Z 15006KT 25/21 A2983 RMK A01 T02500212  RH  080%=      5-min Rain = 0
KMC1 230711Z 16008G16KT 25/21 A2983 RMK A01 T02500212  RH  080%=      5-min Rain = 0
KMC1 230712Z 15011KT 25/21 A2983 RMK A01 T02500212  RH  080%=      5-min Rain = 0
KMC1 230713Z 16006KT 25/21 A2983 RMK A01 T02500212  RH  080%=      5-min Rain = 0
KMC1 230714Z 16005KT 25/21 A2983 RMK A01 T02500212  RH  079%=      5-min Rain = 0
KMC1 230715Z 16004KT 25/21 A2983 RMK A01 T02500212  RH  080%=      5-min Rain = 0
KMC1 230716Z 17004KT 25/21 A2983 RMK A01 T02490212  RH  080%=      5-min Rain = 0
KMC1 230717Z 15004KT 25/21 A2983 RMK A01 T02490212  RH  080%=      5-min Rain = 0
KMC1 230718Z 16006KT 25/21 A2983 RMK A01 T02480212  RH  080%=      5-min Rain = 0
KMC1 230719Z 16007G12KT 25/21 A2983 RMK A01 T02480212  RH  080%=      5-min Rain = 0
KMC1 230720Z 15007KT 25/21 A2983 RMK A01 T02480212  RH  081%=      5-min Rain = 0
KMC1 230721Z 15007KT 25/21 A2983 RMK A01 T02480212  RH  081%=      5-min Rain = 0
KMC1 230722Z 15007KT 25/21 A2983 RMK A01 T02480212  RH  081%=      5-min Rain = 0
KMC1 230723Z 17007KT 25/21 A2983 RMK A01 T02480212  RH  081%=      5-min Rain = 0
KMC1 230724Z 16009KT 25/21 A2983 RMK A01 T02480212  RH  081%=      5-min Rain = 0
KMC1 230725Z 16008G14KT 25/21 A2984 RMK A01 T02480212  RH  080%=      5-min Rain = 0
KMC1 230726Z 15007KT 25/21 A2984 RMK A01 T02490213  RH  080%=      5-min Rain = 0
KMC1 230727Z 17007KT 25/21 A2984 RMK A01 T02490213  RH  080%=      5-min Rain = 0
KMC1 230728Z 16008KT 25/21 A2984 RMK A01 T02490213  RH  080%=      5-min Rain = 0
KMC1 230729Z 17010KT 25/21 A2984 RMK A01 T02490213  RH  080%=      5-min Rain = 0
KMC1 230730Z 15005G10KT 25/21 A2984 RMK A01 T02480213  RH  081%=      5-min Rain = 0
KMC1 230731Z 15006G11KT 25/21 A2984 RMK A01 T02480213  RH  081%=      5-min Rain = 0
KMC1 230732Z 16007KT 25/21 A2984 RMK A01 T02480213  RH  081%=      5-min Rain = 0
KMC1 230733Z 16008KT 25/21 A2984 RMK A01 T02480213  RH  081%=      5-min Rain = 0
KMC1 230734Z 15006G11KT 25/21 A2984 RMK A01 T02480213  RH  081%=      5-min Rain = 0
KMC1 230735Z 17007KT 25/21 A2984 RMK A01 T02470213  RH  081%=      5-min Rain = 0
KMC1 230736Z 16007KT 25/21 A2984 RMK A01 T02480213  RH  081%=      5-min Rain = 0
KMC1 230737Z 16005KT 25/21 A2984 RMK A01 T02470213  RH  081%=      5-min Rain = 0
KMC1 230738Z 15006KT 25/21 A2983 RMK A01 T02470213  RH  081%=      5-min Rain = 0
KMC1 230739Z 15006KT 25/21 A2983 RMK A01 T02460213  RH  082%=      5-min Rain = 0
KMC1 230740Z 15005G10KT 25/21 A2983 RMK A01 T02460213  RH  082%=      5-min Rain = 0
KMC1 230741Z 16004KT 25/21 A2984 RMK A01 T02460213  RH  082%=      5-min Rain = 0
KMC1 230742Z 16007KT 25/21 A2984 RMK A01 T02460213  RH  082%=      5-min Rain = 0
KMC1 230743Z 17007G14KT 25/21 A2984 RMK A01 T02460213  RH  082%=      5-min Rain = 0
KMC1 230744Z 15008KT 25/21 A2984 RMK A01 T02460213  RH  082%=      5-min Rain = 0
KMC1 230745Z 16008KT 25/21 A2984 RMK A01 T02460213  RH  082%=      5-min Rain = 0
KMC1 230746Z 15007KT 25/21 A2984 RMK A01 T02460213  RH  082%=      5-min Rain = 0
KMC1 230747Z 15004KT 25/21 A2984 RMK A01 T02460213  RH  082%=      5-min Rain = 0
KMC1 230748Z 15006KT 25/21 A2984 RMK A01 T02460213  RH  082%=      5-min Rain = 0
KMC1 230749Z 15005KT 25/21 A2984 RMK A01 T02460213  RH  082%=      5-min Rain = 0
KMC1 230750Z 15007KT 25/21 A2984 RMK A01 T02450213  RH  082%=      5-min Rain = 0
KMC1 230751Z 15005KT 25/21 A2984 RMK A01 T02450213  RH  082%=      5-min Rain = 0
KMC1 230752Z 14007KT 25/21 A2984 RMK A01 T02450213  RH  082%=      5-min Rain = 0
KMC1 230753Z 13007KT 25/21 A2984 RMK A01 T02450213  RH  083%=      5-min Rain = 0
KMC1 230754Z 15007KT 25/21 A2984 RMK A01 T02450213  RH  082%=      5-min Rain = 0
KMC1 230755Z 14006KT 25/21 A2984 RMK A01 T02450213  RH  082%=      5-min Rain = 0
KMC1 230756Z 13007KT 25/21 A2984 RMK A01 T02450213  RH  083%=      5-min Rain = 0
KMC1 230757Z 15008KT 25/21 A2984 RMK A01 T02450213  RH  083%=      5-min Rain = 0
KMC1 230758Z 13007KT 25/21 A2984 RMK A01 T02450213  RH  083%=      5-min Rain = 0
KMC1 230759Z 14007KT 25/21 A2984 RMK A01 T02450213  RH  083%=      5-min Rain = 0
KMC1 230800Z 13008KT 25/21 A2984 RMK A01 T02450214  RH  083%=      5-min Rain = 0
KMC1 230801Z 12006KT 25/21 A2984 RMK A01 T02450213  RH  083%=      5-min Rain = 0
KMC1 230802Z 13006KT 25/21 A2984 RMK A01 T02450213  RH  083%=      5-min Rain = 0
KMC1 230803Z 13007KT 24/21 A2984 RMK A01 T02440213  RH  083%=      5-min Rain = 0
KMC1 230804Z 11005KT 24/21 A2984 RMK A01 T02440214  RH  083%=      5-min Rain = 0
KMC1 230805Z 11006KT 24/21 A2984 RMK A01 T02430213  RH  083%=      5-min Rain = 0
KMC1 230806Z 11007KT 24/21 A2984 RMK A01 T02430213  RH  083%=      5-min Rain = 0
KMC1 230807Z 11006KT 24/21 A2984 RMK A01 T02430214  RH  084%=      5-min Rain = 0
KMC1 230808Z 11006KT 24/21 A2984 RMK A01 T02420213  RH  084%=      5-min Rain = 0
KMC1 230809Z 09005KT 24/21 A2984 RMK A01 T02430214  RH  084%=      5-min Rain = 0
KMC1 230810Z 10005KT 24/21 A2984 RMK A01 T02420213  RH  084%=      5-min Rain = 0
KMC1 230811Z 10005KT 24/21 A2984 RMK A01 T02420213  RH  084%=      5-min Rain = 0
KMC1 230812Z 09005KT 24/21 A2984 RMK A01 T02410213  RH  084%=      5-min Rain = 0
KMC1 230813Z 09004KT 24/21 A2984 RMK A01 T02410214  RH  085%=      5-min Rain = 0
KMC1 230814Z 10006KT 24/21 A2984 RMK A01 T02410214  RH  085%=      5-min Rain = 0
KMC1 230815Z 11006KT 24/21 A2984 RMK A01 T02400214  RH  085%=      5-min Rain = 0
KMC1 230816Z 10005KT 24/21 A2984 RMK A01 T02400214  RH  085%=      5-min Rain = 0
KMC1 230817Z 10007KT 24/21 A2984 RMK A01 T02400214  RH  085%=      5-min Rain = 0
KMC1 230818Z 11007KT 24/21 A2984 RMK A01 T02400214  RH  086%=      5-min Rain = 0
KMC1 230819Z 11005KT 24/21 A2984 RMK A01 T02400214  RH  086%=      5-min Rain = 0
KMC1 230820Z 12005KT 24/21 A2984 RMK A01 T02400214  RH  086%=      5-min Rain = 0
KMC1 230821Z 12006KT 24/21 A2984 RMK A01 T02390214  RH  086%=      5-min Rain = 0
KMC1 230822Z 13005KT 24/21 A2984 RMK A01 T02390214  RH  086%=      5-min Rain = 0
KMC1 230823Z 14004KT 24/21 A2983 RMK A01 T02380214  RH  086%=      5-min Rain = 0
KMC1 230824Z 13006KT 24/21 A2983 RMK A01 T02380214  RH  087%=      5-min Rain = 0
KMC1 230825Z 14006KT 24/21 A2983 RMK A01 T02370214  RH  087%=      5-min Rain = 0
KMC1 230826Z 14005KT 24/22 A2983 RMK A01 T02370215  RH  087%=      5-min Rain = 0
KMC1 230827Z 14004KT 24/22 A2983 RMK A01 T02370215  RH  087%=      5-min Rain = 0
KMC1 230828Z 14006KT 24/22 A2983 RMK A01 T02370215  RH  087%=      5-min Rain = 0
KMC1 230829Z 14006KT 24/22 A2983 RMK A01 T02370215  RH  087%=      5-min Rain = 0
KMC1 230830Z 15006KT 24/22 A2983 RMK A01 T02370215  RH  087%=      5-min Rain = 0
KMC1 230831Z 15007KT 24/22 A2983 RMK A01 T02370215  RH  087%=      5-min Rain = 0
KMC1 230832Z 15007KT 24/22 A2983 RMK A01 T02370215  RH  088%=      5-min Rain = 0
KMC1 230833Z 15006KT 24/22 A2983 RMK A01 T02370216  RH  088%=      5-min Rain = 0
KMC1 230834Z 15006G11KT 24/22 A2983 RMK A01 T02370215  RH  088%=      5-min Rain = 0
KMC1 230835Z 14008KT 24/22 A2983 RMK A01 T02370216  RH  088%=      5-min Rain = 0
KMC1 230836Z 15005KT 24/22 A2983 RMK A01 T02370216  RH  088%=      5-min Rain = 0
KMC1 230837Z 15005KT 24/22 A2983 RMK A01 T02370216  RH  088%=      5-min Rain = 0
KMC1 230838Z 14006KT 24/22 A2983 RMK A01 T02370215  RH  088%=      5-min Rain = 0
KMC1 230839Z 15005KT 24/22 A2983 RMK A01 T02360216  RH  088%=      5-min Rain = 0
KMC1 230840Z 14006G11KT 24/22 A2983 RMK A01 T02360216  RH  088%=      5-min Rain = 0
KMC1 230841Z 14008KT 24/22 A2983 RMK A01 T02360216  RH  089%=      5-min Rain = 0
KMC1 230842Z 14007KT 24/22 A2983 RMK A01 T02360216  RH  089%=      5-min Rain = 0
KMC1 230843Z 14006KT 24/22 A2983 RMK A01 T02360216  RH  089%=      5-min Rain = 0
KMC1 230844Z 13007KT 24/22 A2983 RMK A01 T02360216  RH  089%=      5-min Rain = 0
KMC1 230845Z 13006KT 24/22 A2983 RMK A01 T02360216  RH  089%=      5-min Rain = 0
KMC1 230846Z 14007KT 24/22 A2983 RMK A01 T02360216  RH  089%=      5-min Rain = 0
KMC1 230847Z 12006KT 24/22 A2983 RMK A01 T02360216  RH  089%=      5-min Rain = 0
KMC1 230848Z 13006KT 24/22 A2983 RMK A01 T02360217  RH  089%=      5-min Rain = 0
KMC1 230849Z 12007KT 24/22 A2983 RMK A01 T02360217  RH  089%=      5-min Rain = 0
KMC1 230850Z 14007KT 24/22 A2983 RMK A01 T02360217  RH  089%=      5-min Rain = 0
KMC1 230851Z 13006KT 24/22 A2983 RMK A01 T02350216  RH  089%=      5-min Rain = 0
KMC1 230852Z 13007KT 24/22 A2983 RMK A01 T02350216  RH  089%=      5-min Rain = 0
KMC1 230853Z 12007KT 24/22 A2983 RMK A01 T02350217  RH  089%=      5-min Rain = 0
KMC1 230854Z 13008KT 24/22 A2983 RMK A01 T02350217  RH  089%=      5-min Rain = 0
KMC1 230855Z 13008KT 24/22 A2983 RMK A01 T02350217  RH  089%=      5-min Rain = 0
KMC1 230856Z 14007KT 24/22 A2983 RMK A01 T02350217  RH  089%=      5-min Rain = 0
KMC1 230857Z 14006KT 24/22 A2983 RMK A01 T02350217  RH  089%=      5-min Rain = 0
KMC1 230858Z 14006KT 24/22 A2983 RMK A01 T02350216  RH  089%=      5-min Rain = 0
KMC1 230859Z 14007KT 23/22 A2983 RMK A01 T02340217  RH  090%=      5-min Rain = 0
KMC1 230900Z 14007KT 23/22 A2983 RMK A01 T02340217  RH  090%=      5-min Rain = 0
KMC1 230901Z 13007KT 23/22 A2983 RMK A01 T02340217  RH  090%=      5-min Rain = 0
KMC1 230902Z 14007KT 23/22 A2983 RMK A01 T02340217  RH  090%=      5-min Rain = 0
KMC1 230903Z 14005KT 23/22 A2983 RMK A01 T02340217  RH  090%=      5-min Rain = 0
KMC1 230904Z 14007KT 23/22 A2983 RMK A01 T02340216  RH  090%=      5-min Rain = 0
KMC1 230905Z 14006KT 23/22 A2983 RMK A01 T02340217  RH  090%=      5-min Rain = 0
KMC1 230906Z 15009KT 23/22 A2983 RMK A01 T02330217  RH  090%=      5-min Rain = 0
KMC1 230907Z 14006KT 23/22 A2983 RMK A01 T02330217  RH  091%=      5-min Rain = 0
KMC1 230908Z 15007KT 23/22 A2983 RMK A01 T02330217  RH  090%=      5-min Rain = 0
KMC1 230909Z 15006KT 23/22 A2983 RMK A01 T02330217  RH  091%=      5-min Rain = 0
KMC1 230910Z 13005KT 23/22 A2983 RMK A01 T02330217  RH  091%=      5-min Rain = 0
KMC1 230911Z 14005KT 23/22 A2983 RMK A01 T02330217  RH  091%=      5-min Rain = 0
KMC1 230912Z 14006KT 23/22 A2983 RMK A01 T02320217  RH  091%=      5-min Rain = 0
KMC1 230913Z 15007KT 23/22 A2983 RMK A01 T02320217  RH  091%=      5-min Rain = 0
KMC1 230914Z 15006KT 23/22 A2983 RMK A01 T02320217  RH  091%=      5-min Rain = 0
KMC1 230915Z 14005KT 23/22 A2983 RMK A01 T02320217  RH  091%=      5-min Rain = 0
KMC1 230916Z 15005KT 23/22 A2983 RMK A01 T02320217  RH  091%=      5-min Rain = 0
KMC1 230917Z 15007KT 23/22 A2983 RMK A01 T02320217  RH  091%=      5-min Rain = 0
KMC1 230918Z 15006KT 23/22 A2983 RMK A01 T02310217  RH  092%=      5-min Rain = 0
KMC1 230919Z 14007KT 23/22 A2983 RMK A01 T02310217  RH  092%=      5-min Rain = 0
KMC1 230920Z 14006KT 23/22 A2984 RMK A01 T02310217  RH  092%=      5-min Rain = 0
KMC1 230921Z 15007KT 23/22 A2984 RMK A01 T02320217  RH  092%=      5-min Rain = 0
KMC1 230922Z 14008KT 23/22 A2984 RMK A01 T02320217  RH  092%=      5-min Rain = 0
KMC1 230923Z 13007KT 23/22 A2984 RMK A01 T02320218  RH  092%=      5-min Rain = 0
KMC1 230924Z 13008KT 23/22 A2984 RMK A01 T02320217  RH  092%=      5-min Rain = 0
KMC1 230925Z 13007KT 23/22 A2984 RMK A01 T02320217  RH  092%=      5-min Rain = 0
KMC1 230926Z 13006KT 23/22 A2984 RMK A01 T02320218  RH  092%=      5-min Rain = 0
KMC1 230927Z 12005KT 23/22 A2984 RMK A01 T02320218  RH  092%=      5-min Rain = 0
KMC1 230928Z 11006KT 23/22 A2984 RMK A01 T02320218  RH  092%=      5-min Rain = 0
KMC1 230929Z 11006KT 23/22 A2984 RMK A01 T02320218  RH  092%=      5-min Rain = 0
KMC1 230930Z 11006KT 23/22 A2984 RMK A01 T02320218  RH  092%=      5-min Rain = 0
KMC1 230931Z 11006KT 23/22 A2984 RMK A01 T02320218  RH  092%=      5-min Rain = 0
KMC1 230932Z 10006KT 23/22 A2984 RMK A01 T02320218  RH  092%=      5-min Rain = 0
KMC1 230933Z 10006KT 23/22 A2984 RMK A01 T02310218  RH  092%=      5-min Rain = 0
KMC1 230934Z 10006KT 23/22 A2984 RMK A01 T02310218  RH  092%=      5-min Rain = 0
KMC1 230935Z 11006KT 23/22 A2984 RMK A01 T02320218  RH  092%=      5-min Rain = 0
KMC1 230936Z 11006KT 23/22 A2984 RMK A01 T02310218  RH  092%=      5-min Rain = 0
KMC1 230937Z 11006KT 23/22 A2984 RMK A01 T02310218  RH  092%=      5-min Rain = 0
KMC1 230938Z 11007KT 23/22 A2984 RMK A01 T02320218  RH  092%=      5-min Rain = 0
KMC1 230939Z 12005KT 23/22 A2984 RMK A01 T02320218  RH  092%=      5-min Rain = 0
KMC1 230940Z 12007KT 23/22 A2984 RMK A01 T02320218  RH  092%=      5-min Rain = 0
KMC1 230941Z 13006KT 23/22 A2984 RMK A01 T02320218  RH  092%=      5-min Rain = 0
KMC1 230942Z 12006KT 23/22 A2984 RMK A01 T02320219  RH  092%=      5-min Rain = 0
KMC1 230943Z 11007KT 23/22 A2984 RMK A01 T02320219  RH  092%=      5-min Rain = 0
KMC1 230944Z 13006KT 23/22 A2984 RMK A01 T02320219  RH  092%=      5-min Rain = 0
KMC1 230945Z 14006KT 23/22 A2984 RMK A01 T02320219  RH  092%=      5-min Rain = 0
KMC1 230946Z 14006KT 23/22 A2984 RMK A01 T02320219  RH  092%=      5-min Rain = 0
KMC1 230947Z 14006KT 23/22 A2984 RMK A01 T02320219  RH  092%=      5-min Rain = 0
KMC1 230948Z 15006KT 23/22 A2984 RMK A01 T02320219  RH  092%=      5-min Rain = 0
KMC1 230949Z 15008G14KT 23/22 A2984 RMK A01 T02320219  RH  092%=      5-min Rain = 0
KMC1 230950Z 15008G13KT 23/22 A2984 RMK A01 T02320219  RH  092%=      5-min Rain = 0
KMC1 230951Z 14007KT 23/22 A2984 RMK A01 T02330219  RH  092%=      5-min Rain = 0
KMC1 230952Z 14007KT 23/22 A2984 RMK A01 T02330219  RH  092%=      5-min Rain = 0
KMC1 230953Z 15006KT 23/22 A2984 RMK A01 T02330219  RH  092%=      5-min Rain = 0
KMC1 230954Z 14007KT 23/22 A2984 RMK A01 T02330219  RH  092%=      5-min Rain = 0
KMC1 230955Z 14006G11KT 23/22 A2984 RMK A01 T02340220  RH  092%=      5-min Rain = 0
KMC1 230956Z 15008KT 23/22 A2984 RMK A01 T02330220  RH  092%=      5-min Rain = 0
KMC1 230957Z 15008KT 23/22 A2984 RMK A01 T02330220  RH  092%=      5-min Rain = 0
KMC1 230958Z 15006KT 23/22 A2984 RMK A01 T02340220  RH  092%=      5-min Rain = 0
KMC1 230959Z 14005KT 23/22 A2984 RMK A01 T02340220  RH  092%=      5-min Rain = 0
KMC1 231000Z 14005KT 24/22 A2984 RMK A01 T02350220  RH  091%=      5-min Rain = 0
KMC1 231001Z 16006KT 24/22 A2984 RMK A01 T02350220  RH  091%=      5-min Rain = 0
KMC1 231002Z 16005KT 24/22 A2984 RMK A01 T02350220  RH  091%=      5-min Rain = 0
KMC1 231003Z 16007KT 24/22 A2984 RMK A01 T02350220  RH  091%=      5-min Rain = 0
KMC1 231004Z 16009G18KT 24/22 A2984 RMK A01 T02350220  RH  091%=      5-min Rain = 0
KMC1 231005Z 16009G16KT 24/22 A2984 RMK A01 T02360220  RH  091%=      5-min Rain = 0
KMC1 231006Z 17010KT 24/22 A2984 RMK A01 T02360219  RH  090%=      5-min Rain = 0
KMC1 231007Z 16007KT 24/22 A2984 RMK A01 T02370219  RH  090%=      5-min Rain = 0
KMC1 231008Z 16005KT 24/22 A2984 RMK A01 T02370219  RH  090%=      5-min Rain = 0
KMC1 231009Z 16004KT 24/22 A2984 RMK A01 T02370219  RH  090%=      5-min Rain = 0
KMC1 231010Z 15006KT 24/22 A2984 RMK A01 T02370219  RH  090%=      5-min Rain = 0
KMC1 231011Z 16004KT 24/22 A2985 RMK A01 T02360219  RH  090%=      5-min Rain = 0
KMC1 231012Z 16004KT 24/22 A2985 RMK A01 T02370220  RH  090%=      5-min Rain = 0
KMC1 231013Z 14004G9KT 24/22 A2985 RMK A01 T02360220  RH  090%=      5-min Rain = 0
KMC1 231014Z 14004G9KT 24/22 A2985 RMK A01 T02360220  RH  090%=      5-min Rain = 0
KMC1 231015Z 15004KT 24/22 A2985 RMK A01 T02360220  RH  091%=      5-min Rain = 0
KMC1 231016Z 15004KT 24/22 A2985 RMK A01 T02360220  RH  091%=      5-min Rain = 0
KMC1 231017Z 14005KT 24/22 A2985 RMK A01 T02360220  RH  091%=      5-min Rain = 0
KMC1 231018Z 14007KT 24/22 A2985 RMK A01 T02360220  RH  091%=      5-min Rain = 0
KMC1 231019Z 13007KT 24/22 A2985 RMK A01 T02360220  RH  091%=      5-min Rain = 0
KMC1 231020Z 14005KT 24/22 A2985 RMK A01 T02360220  RH  090%=      5-min Rain = 0
KMC1 231021Z 13008KT 24/22 A2985 RMK A01 T02370220  RH  090%=      5-min Rain = 0
KMC1 231022Z 14006KT 24/22 A2985 RMK A01 T02370220  RH  090%=      5-min Rain = 0
KMC1 231023Z 14006KT 24/22 A2985 RMK A01 T02360220  RH  091%=      5-min Rain = 0
KMC1 231024Z 14007KT 24/22 A2985 RMK A01 T02360220  RH  091%=      5-min Rain = 0
KMC1 231025Z 13009KT 24/22 A2985 RMK A01 T02360220  RH  091%=      5-min Rain = 0
KMC1 231026Z 14006KT 24/22 A2985 RMK A01 T02370220  RH  090%=      5-min Rain = 0
KMC1 231027Z 14006KT 24/22 A2985 RMK A01 T02360220  RH  090%=      5-min Rain = 0
KMC1 231028Z 14004KT 24/22 A2985 RMK A01 T02360220  RH  090%=      5-min Rain = 0
KMC1 231029Z 15005KT 24/22 A2985 RMK A01 T02360220  RH  091%=      5-min Rain = 0
KMC1 231030Z 15007G13KT 24/22 A2985 RMK A01 T02350220  RH  091%=      5-min Rain = 0
KMC1 231031Z 15009KT 24/22 A2985 RMK A01 T02350220  RH  091%=      5-min Rain = 0
KMC1 231032Z 15006KT 24/22 A2985 RMK A01 T02350220  RH  091%=      5-min Rain = 0
KMC1 231033Z 17007KT 24/22 A2985 RMK A01 T02350219  RH  091%=      5-min Rain = 0
KMC1 231034Z 17008KT 24/22 A2985 RMK A01 T02350219  RH  091%=      5-min Rain = 0
KMC1 231035Z 16006KT 24/22 A2985 RMK A01 T02350219  RH  091%=      5-min Rain = 0
KMC1 231036Z 16003KT 24/22 A2985 RMK A01 T02350219  RH  091%=      5-min Rain = 0
KMC1 231037Z 15004KT 24/22 A2985 RMK A01 T02350219  RH  091%=      5-min Rain = 0
KMC1 231038Z 17007KT 24/22 A2985 RMK A01 T02350219  RH  091%=      5-min Rain = 0
KMC1 231039Z 16006KT 24/22 A2985 RMK A01 T02350219  RH  091%=      5-min Rain = 0
KMC1 231040Z 17008KT 24/22 A2985 RMK A01 T02350220  RH  091%=      5-min Rain = 0
KMC1 231041Z 16004KT 24/22 A2985 RMK A01 T02350220  RH  091%=      5-min Rain = 0
KMC1 231042Z 17004KT 24/22 A2985 RMK A01 T02350219  RH  091%=      5-min Rain = 0
KMC1 231043Z 17005KT 24/22 A2985 RMK A01 T02350219  RH  091%=      5-min Rain = 0
KMC1 231044Z 17007KT 24/22 A2985 RMK A01 T02350220  RH  091%=      5-min Rain = 0
KMC1 231045Z 17007KT 24/22 A2985 RMK A01 T02350220  RH  092%=      5-min Rain = 0
KMC1 231046Z 17008KT 24/22 A2985 RMK A01 T02350220  RH  092%=      5-min Rain = 0
KMC1 231047Z 17007KT 24/22 A2985 RMK A01 T02350220  RH  091%=      5-min Rain = 0
KMC1 231048Z 17004KT 24/22 A2986 RMK A01 T02360220  RH  091%=      5-min Rain = 0
KMC1 231049Z 16006KT 24/22 A2986 RMK A01 T02360220  RH  091%=      5-min Rain = 0
KMC1 231050Z 17004KT 24/22 A2986 RMK A01 T02360220  RH  091%=      5-min Rain = 0
KMC1 231051Z 16006KT 24/22 A2986 RMK A01 T02360220  RH  091%=      5-min Rain = 0
KMC1 231052Z 15006KT 24/22 A2986 RMK A01 T02360220  RH  091%=      5-min Rain = 0
KMC1 231053Z 16006KT 24/22 A2986 RMK A01 T02360220  RH  091%=      5-min Rain = 0
KMC1 231054Z 17006KT 24/22 A2986 RMK A01 T02350220  RH  091%=      5-min Rain = 0
KMC1 231055Z 16006KT 24/22 A2986 RMK A01 T02360220  RH  091%=      5-min Rain = 0
KMC1 231056Z 16005KT 24/22 A2986 RMK A01 T02360220  RH  091%=      5-min Rain = 0
KMC1 231057Z 15004KT 24/22 A2986 RMK A01 T02360220  RH  091%=      5-min Rain = 0
KMC1 231058Z 15004KT 24/22 A2986 RMK A01 T02360220  RH  091%=      5-min Rain = 0
KMC1 231059Z 14002KT 24/22 A2986 RMK A01 T02360220  RH  091%=      5-min Rain = 0
KMC1 231100Z 16003KT 24/22 A2986 RMK A01 T02360220  RH  091%=      5-min Rain = 0
KMC1 231101Z 16001KT 24/22 A2986 RMK A01 T02350220  RH  091%=      5-min Rain = 0
KMC1 231102Z 15003KT 24/22 A2986 RMK A01 T02350220  RH  091%=      5-min Rain = 0
KMC1 231103Z 15002KT 24/22 A2986 RMK A01 T02350220  RH  091%=      5-min Rain = 0
KMC1 231104Z 15004KT 23/22 A2986 RMK A01 T02340220  RH  092%=      5-min Rain = 0
KMC1 231105Z 16003KT 23/22 A2986 RMK A01 T02340220  RH  092%=      5-min Rain = 0
KMC1 231106Z 15002KT 23/22 A2986 RMK A01 T02340220  RH  092%=      5-min Rain = 0
KMC1 231107Z 15002KT 23/22 A2986 RMK A01 T02340220  RH  092%=      5-min Rain = 0
KMC1 231108Z 14003KT 23/22 A2986 RMK A01 T02340220  RH  092%=      5-min Rain = 0
KMC1 231109Z 15004KT 23/22 A2986 RMK A01 T02330220  RH  092%=      5-min Rain = 0
KMC1 231110Z 15003KT 23/22 A2986 RMK A01 T02330220  RH  092%=      5-min Rain = 0
KMC1 231111Z 14002KT 23/22 A2986 RMK A01 T02320219  RH  092%=      5-min Rain = 0
KMC1 231112Z 15003KT 23/22 A2986 RMK A01 T02320219  RH  092%=      5-min Rain = 0
KMC1 231113Z 14003KT 23/22 A2986 RMK A01 T02320219  RH  093%=      5-min Rain = 0
KMC1 231114Z 15003KT 23/22 A2986 RMK A01 T02320220  RH  093%=      5-min Rain = 0
KMC1 231115Z 14003KT 23/22 A2986 RMK A01 T02310219  RH  093%=      5-min Rain = 0
KMC1 231116Z 16004KT 23/22 A2986 RMK A01 T02310220  RH  093%=      5-min Rain = 0
KMC1 231117Z 16004KT 23/22 A2987 RMK A01 T02310219  RH  093%=      5-min Rain = 0
KMC1 231118Z 14004KT 23/22 A2987 RMK A01 T02310219  RH  093%=      5-min Rain = 0
KMC1 231119Z 15003KT 23/22 A2987 RMK A01 T02310219  RH  093%=      5-min Rain = 0
KMC1 231120Z 16003KT 23/22 A2987 RMK A01 T02310219  RH  093%=      5-min Rain = 0
KMC1 231121Z 15004KT 23/22 A2987 RMK A01 T02300219  RH  093%=      5-min Rain = 0
KMC1 231122Z 16004KT 23/22 A2987 RMK A01 T02300219  RH  094%=      5-min Rain = 0
KMC1 231123Z 15004KT 23/22 A2987 RMK A01 T02300219  RH  094%=      5-min Rain = 0
KMC1 231124Z 17005KT 23/22 A2987 RMK A01 T02300219  RH  093%=      5-min Rain = 0
KMC1 231125Z 17006KT 23/22 A2987 RMK A01 T02300219  RH  093%=      5-min Rain = 0
KMC1 231126Z 16005KT 23/22 A2988 RMK A01 T02310218  RH  093%=      5-min Rain = 0
KMC1 231127Z 16004KT 23/22 A2988 RMK A01 T02310218  RH  092%=      5-min Rain = 0
KMC1 231128Z 16004KT 23/22 A2988 RMK A01 T02310218  RH  092%=      5-min Rain = 0
KMC1 231129Z 16005KT 23/22 A2988 RMK A01 T02320218  RH  092%=      5-min Rain = 0
KMC1 231130Z 17007KT 23/22 A2988 RMK A01 T02320218  RH  092%=      5-min Rain = 0
KMC1 231131Z 17007KT 23/22 A2988 RMK A01 T02320217  RH  091%=      5-min Rain = 0
KMC1 231132Z 16006KT 23/22 A2988 RMK A01 T02330217  RH  091%=      5-min Rain = 0
KMC1 231133Z 17005KT 23/22 A2988 RMK A01 T02330217  RH  091%=      5-min Rain = 0
KMC1 231134Z 16004KT 23/22 A2988 RMK A01 T02330217  RH  091%=      5-min Rain = 0
KMC1 231135Z 15004KT 23/22 A2988 RMK A01 T02330217  RH  091%=      5-min Rain = 0
KMC1 231136Z 15003KT 23/22 A2988 RMK A01 T02330217  RH  091%=      5-min Rain = 0
KMC1 231137Z 16004KT 23/22 A2988 RMK A01 T02320217  RH  091%=      5-min Rain = 0
KMC1 231138Z 16004KT 23/22 A2988 RMK A01 T02320217  RH  091%=      5-min Rain = 0
KMC1 231139Z 16004KT 23/22 A2988 RMK A01 T02330217  RH  091%=      5-min Rain = 0
KMC1 231140Z 14005KT 23/22 A2988 RMK A01 T02330217  RH  091%=      5-min Rain = 0
KMC1 231141Z 14004KT 23/22 A2988 RMK A01 T02320216  RH  091%=      5-min Rain = 0
KMC1 231142Z 15005KT 23/22 A2989 RMK A01 T02330216  RH  090%=      5-min Rain = 0
KMC1 231143Z 15004KT 23/22 A2989 RMK A01 T02320215  RH  090%=      5-min Rain = 0
KMC1 231144Z 14005KT 23/22 A2989 RMK A01 T02330215  RH  090%=      5-min Rain = 0
KMC1 231145Z 15004KT 23/22 A2989 RMK A01 T02320215  RH  090%=      5-min Rain = 0
KMC1 231146Z 15003KT 23/21 A2989 RMK A01 T02320214  RH  090%=      5-min Rain = 0
KMC1 231147Z 15003KT 23/21 A2989 RMK A01 T02320214  RH  090%=      5-min Rain = 0
KMC1 231148Z 14003KT 23/21 A2989 RMK A01 T02320214  RH  090%=      5-min Rain = 0
KMC1 231149Z 14004KT 23/21 A2989 RMK A01 T02310214  RH  090%=      5-min Rain = 0
KMC1 231150Z 15003KT 23/21 A2989 RMK A01 T02310214  RH  090%=      5-min Rain = 0
KMC1 231151Z 15003KT 23/21 A2989 RMK A01 T02310214  RH  090%=      5-min Rain = 0
KMC1 231152Z 15004KT 23/21 A2989 RMK A01 T02310214  RH  090%=      5-min Rain = 0
KMC1 231153Z 15003KT 23/21 A2989 RMK A01 T02310214  RH  090%=      5-min Rain = 0
KMC1 231154Z 14003KT 23/21 A2989 RMK A01 T02300214  RH  090%=      5-min Rain = 0
KMC1 231155Z 15003KT 23/21 A2989 RMK A01 T02300214  RH  091%=      5-min Rain = 0
KMC1 231156Z 15003KT 23/21 A2989 RMK A01 T02300214  RH  091%=      5-min Rain = 0
KMC1 231157Z 14002KT 23/21 A2989 RMK A01 T02290214  RH  091%=      5-min Rain = 0
KMC1 231158Z 14004KT 23/21 A299 RMK A01 T02290214  RH  091%=      5-min Rain = 0
KMC1 231159Z 15004KT 23/21 A299 RMK A01 T02290214  RH  091%=      5-min Rain = 0
KMC1 231200Z 13005KT 23/21 A299 RMK A01 T02280214  RH  092%=      5-min Rain = 0
KMC1 231201Z 15006KT 23/21 A299 RMK A01 T02280214  RH  091%=      5-min Rain = 0
KMC1 231202Z 15006KT 23/21 A299 RMK A01 T02280212  RH  091%=      5-min Rain = 0
KMC1 231203Z 16005G12KT 23/21 A299 RMK A01 T02290212  RH  090%=      5-min Rain = 0
KMC1 231204Z 15006G11KT 23/21 A299 RMK A01 T02290211  RH  090%=      5-min Rain = 0
KMC1 231205Z 16006KT 23/21 A299 RMK A01 T02290210  RH  089%=      5-min Rain = 0
KMC1 231206Z 15006KT 23/21 A299 RMK A01 T02300210  RH  089%=      5-min Rain = 0
KMC1 231207Z 15008KT 23/21 A299 RMK A01 T02300210  RH  088%=      5-min Rain = 0
KMC1 231208Z 15006KT 23/21 A299 RMK A01 T02300209  RH  088%=      5-min Rain = 0
KMC1 231209Z 15007KT 23/21 A299 RMK A01 T02300209  RH  088%=      5-min Rain = 0
KMC1 231210Z 15006KT 23/21 A299 RMK A01 T02300209  RH  088%=      5-min Rain = 0
KMC1 231211Z 16007KT 23/21 A299 RMK A01 T02300208  RH  088%=      5-min Rain = 0
KMC1 231212Z 13007KT 23/21 A299 RMK A01 T02300208  RH  087%=      5-min Rain = 0
KMC1 231213Z 14005KT 23/21 A299 RMK A01 T02300208  RH  087%=      5-min Rain = 0
KMC1 231214Z 14005KT 23/21 A299 RMK A01 T02300208  RH  087%=      5-min Rain = 0
KMC1 231215Z 15005KT 23/21 A299 RMK A01 T02300208  RH  087%=      5-min Rain = 0
KMC1 231216Z 15004KT 23/21 A299 RMK A01 T02300208  RH  087%=      5-min Rain = 0
KMC1 231217Z 14004KT 23/21 A299 RMK A01 T02300208  RH  087%=      5-min Rain = 0
KMC1 231218Z 14006KT 23/21 A299 RMK A01 T02300208  RH  087%=      5-min Rain = 0
KMC1 231219Z 14008KT 23/21 A299 RMK A01 T02300207  RH  087%=      5-min Rain = 0
KMC1 231220Z 14004KT 23/21 A299 RMK A01 T02300207  RH  087%=      5-min Rain = 0
KMC1 231221Z 14006KT 23/21 A299 RMK A01 T02300207  RH  087%=      5-min Rain = 0
KMC1 231222Z 14006KT 23/21 A299 RMK A01 T02310207  RH  087%=      5-min Rain = 0
KMC1 231223Z 13007KT 23/21 A299 RMK A01 T02300207  RH  087%=      5-min Rain = 0
KMC1 231224Z 14006KT 23/21 A299 RMK A01 T02310207  RH  087%=      5-min Rain = 0
KMC1 231225Z 14006KT 23/21 A299 RMK A01 T02310207  RH  087%=      5-min Rain = 0
KMC1 231226Z 13005KT 23/21 A299 RMK A01 T02300207  RH  087%=      5-min Rain = 0
KMC1 231227Z 13007KT 23/21 A299 RMK A01 T02310207  RH  087%=      5-min Rain = 0
KMC1 231228Z 12007KT 23/21 A299 RMK A01 T02310207  RH  087%=      5-min Rain = 0
KMC1 231229Z 14006KT 23/21 A299 RMK A01 T02310207  RH  087%=      5-min Rain = 0
KMC1 231230Z 13005KT 23/21 A2991 RMK A01 T02310207  RH  087%=      5-min Rain = 0
KMC1 231231Z 13005KT 23/21 A2991 RMK A01 T02300208  RH  087%=      5-min Rain = 0
KMC1 231232Z 13005KT 23/21 A2991 RMK A01 T02300208  RH  087%=      5-min Rain = 0
KMC1 231233Z 13005KT 23/21 A2991 RMK A01 T02300208  RH  087%=      5-min Rain = 0
KMC1 231234Z 12005KT 23/21 A2991 RMK A01 T02300208  RH  087%=      5-min Rain = 0
KMC1 231235Z 12005KT 23/21 A2991 RMK A01 T02300208  RH  087%=      5-min Rain = 0
KMC1 231236Z 12004KT 23/21 A2991 RMK A01 T02300209  RH  088%=      5-min Rain = 0
KMC1 231237Z 13006KT 23/21 A2991 RMK A01 T02300208  RH  087%=      5-min Rain = 0
KMC1 231238Z 12007KT 23/21 A2991 RMK A01 T02300208  RH  087%=      5-min Rain = 0
KMC1 231239Z 11005KT 23/21 A2991 RMK A01 T02310208  RH  087%=      5-min Rain = 0
KMC1 231240Z 10007KT 23/21 A2991 RMK A01 T02310209  RH  087%=      5-min Rain = 0
KMC1 231241Z 12006KT 23/21 A2991 RMK A01 T02310208  RH  087%=      5-min Rain = 0
KMC1 231242Z 11008KT 23/21 A2991 RMK A01 T02310208  RH  087%=      5-min Rain = 0
KMC1 231243Z 12010KT 23/21 A2991 RMK A01 T02320208  RH  086%=      5-min Rain = 0
KMC1 231244Z 13009KT 23/21 A2991 RMK A01 T02320207  RH  086%=      5-min Rain = 0
KMC1 231245Z 13008KT 23/21 A2991 RMK A01 T02320207  RH  086%=      5-min Rain = 0
KMC1 231246Z 13008KT 23/21 A2992 RMK A01 T02320206  RH  086%=      5-min Rain = 0
KMC1 231247Z 13009KT 23/21 A2992 RMK A01 T02320205  RH  085%=      5-min Rain = 0
KMC1 231248Z 14010G15KT 23/20 A2992 RMK A01 T02310204  RH  085%=      5-min Rain = 0
KMC1 231249Z 13012KT 23/20 A2992 RMK A01 T02320204  RH  084%=      5-min Rain = 0
KMC1 231250Z 13011KT 23/20 A2992 RMK A01 T02320204  RH  084%=      5-min Rain = 0
KMC1 231251Z 12008KT 23/20 A2992 RMK A01 T02320204  RH  084%=      5-min Rain = 0
KMC1 231252Z 13011KT 23/20 A2992 RMK A01 T02320204  RH  084%=      5-min Rain = 0
KMC1 231253Z 12008KT 23/20 A2992 RMK A01 T02320203  RH  084%=      5-min Rain = 0
KMC1 231254Z 13009KT 23/20 A2992 RMK A01 T02320204  RH  084%=      5-min Rain = 0
KMC1 231255Z 12008KT 23/20 A2992 RMK A01 T02320204  RH  084%=      5-min Rain = 0
KMC1 231256Z 12010KT 23/20 A2992 RMK A01 T02330203  RH  084%=      5-min Rain = 0
KMC1 231257Z 13009KT 23/20 A2992 RMK A01 T02330203  RH  083%=      5-min Rain = 0
KMC1 231258Z 12006KT 23/20 A2992 RMK A01 T02330203  RH  083%=      5-min Rain = 0
KMC1 231259Z 12007G13KT 23/20 A2992 RMK A01 T02330203  RH  084%=      5-min Rain = 0
KMC1 231300Z 13006KT 23/20 A2992 RMK A01 T02330204  RH  084%=      5-min Rain = 0
KMC1 231301Z 12007KT 23/20 A2993 RMK A01 T02330204  RH  084%=      5-min Rain = 0
KMC1 231302Z 12009KT 23/20 A2993 RMK A01 T02330203  RH  083%=      5-min Rain = 0
KMC1 231303Z 11008KT 23/20 A2993 RMK A01 T02330203  RH  083%=      5-min Rain = 0
KMC1 231304Z 13008KT 23/20 A2993 RMK A01 T02330203  RH  083%=      5-min Rain = 0
KMC1 231305Z 12010G15KT 23/20 A2993 RMK A01 T02330204  RH  084%=      5-min Rain = 0
KMC1 231306Z 11008KT 23/20 A2993 RMK A01 T02330203  RH  083%=      5-min Rain = 0
KMC1 231307Z 12007KT 23/20 A2993 RMK A01 T02330203  RH  084%=      5-min Rain = 0
KMC1 231308Z 11009KT 23/20 A2993 RMK A01 T02330203  RH  084%=      5-min Rain = 0
KMC1 231309Z 10011KT 23/20 A2993 RMK A01 T02320203  RH  083%=      5-min Rain = 0
KMC1 231310Z 11010KT 23/20 A2993 RMK A01 T02330202  RH  083%=      5-min Rain = 0
KMC1 231311Z 12010KT 23/20 A2993 RMK A01 T02320202  RH  083%=      5-min Rain = 0
KMC1 231312Z 12010KT 23/20 A2993 RMK A01 T02330202  RH  083%=      5-min Rain = 0
KMC1 231313Z 12010KT 23/20 A2993 RMK A01 T02330202  RH  083%=      5-min Rain = 0
KMC1 231314Z 11009KT 23/20 A2993 RMK A01 T02330201  RH  082%=      5-min Rain = 0
KMC1 231315Z 12009G17KT 23/20 A2993 RMK A01 T02340201  RH  082%=      5-min Rain = 0
KMC1 231316Z 11009G14KT 23/20 A2993 RMK A01 T02340201  RH  082%=      5-min Rain = 0
KMC1 231317Z 11007KT 23/20 A2993 RMK A01 T02340201  RH  082%=      5-min Rain = 0
KMC1 231318Z 12007KT 23/20 A2993 RMK A01 T02340201  RH  082%=      5-min Rain = 0
KMC1 231319Z 12008KT 24/20 A2993 RMK A01 T02350201  RH  081%=      5-min Rain = 0
KMC1 231320Z 11008KT 24/20 A2993 RMK A01 T02360201  RH  081%=      5-min Rain = 0
KMC1 231321Z 11011G16KT 24/20 A2993 RMK A01 T02360201  RH  081%=      5-min Rain = 0
KMC1 231322Z 12007KT 24/20 A2993 RMK A01 T02360200  RH  080%=      5-min Rain = 0
KMC1 231323Z 12006KT 24/20 A2993 RMK A01 T02360201  RH  081%=      5-min Rain = 0
KMC1 231324Z 12008KT 24/20 A2993 RMK A01 T02360201  RH  081%=      5-min Rain = 0
KMC1 231325Z 13012KT 24/20 A2993 RMK A01 T02360200  RH  080%=      5-min Rain = 0
KMC1 231326Z 12010KT 24/20 A2993 RMK A01 T02360200  RH  080%=      5-min Rain = 0
KMC1 231327Z 13011KT 24/20 A2993 RMK A01 T02360200  RH  080%=      5-min Rain = 0
KMC1 231328Z 12009KT 24/20 A2993 RMK A01 T02360200  RH  080%=      5-min Rain = 0
KMC1 231329Z 11010KT 24/20 A2993 RMK A01 T02360200  RH  080%=      5-min Rain = 0
KMC1 231330Z 12008KT 24/20 A2993 RMK A01 T02360200  RH  080%=      5-min Rain = 0
KMC1 231331Z 11007KT 24/20 A2993 RMK A01 T02360200  RH  080%=      5-min Rain = 0
KMC1 231332Z 12009KT 24/20 A2993 RMK A01 T02360199  RH  080%=      5-min Rain = 0
KMC1 231333Z 11009G14KT 24/20 A2993 RMK A01 T02360199  RH  080%=      5-min Rain = 0
KMC1 231334Z 11010KT 24/20 A2994 RMK A01 T02360199  RH  080%=      5-min Rain = 0
KMC1 231335Z 12010KT 24/20 A2994 RMK A01 T02360199  RH  080%=      5-min Rain = 0
KMC1 231336Z 11011KT 24/20 A2993 RMK A01 T02360199  RH  079%=      5-min Rain = 0
KMC1 231337Z 12009KT 24/20 A2994 RMK A01 T02360198  RH  079%=      5-min Rain = 0
KMC1 231338Z 11009G18KT 24/20 A2994 RMK A01 T02360200  RH  080%=      5-min Rain = 0
KMC1 231339Z 11013G19KT 24/20 A2993 RMK A01 T02370199  RH  079%=      5-min Rain = 0
KMC1 231340Z 12011KT 24/20 A2994 RMK A01 T02370199  RH  079%=      5-min Rain = 0
KMC1 231341Z 13011KT 24/20 A2994 RMK A01 T02370199  RH  079%=      5-min Rain = 0
KMC1 231342Z 13010KT 24/20 A2994 RMK A01 T02370199  RH  079%=      5-min Rain = 0
KMC1 231343Z 13007KT 24/20 A2994 RMK A01 T02370199  RH  079%=      5-min Rain = 0
KMC1 231344Z 12007KT 24/20 A2994 RMK A01 T02380200  RH  079%=      5-min Rain = 0
KMC1 231345Z 12008KT 24/20 A2994 RMK A01 T02390201  RH  079%=      5-min Rain = 0
KMC1 231346Z 11010KT 24/20 A2994 RMK A01 T02390200  RH  079%=      5-min Rain = 0
KMC1 231347Z 12010KT 24/20 A2994 RMK A01 T02390199  RH  078%=      5-min Rain = 0
KMC1 231348Z 12011KT 24/20 A2994 RMK A01 T02390200  RH  079%=      5-min Rain = 0
KMC1 231349Z 11009G14KT 24/20 A2994 RMK A01 T02390199  RH  078%=      5-min Rain = 0
KMC1 231350Z 13008KT 24/20 A2994 RMK A01 T02390200  RH  079%=      5-min Rain = 0
KMC1 231351Z 13008G13KT 24/20 A2994 RMK A01 T02390200  RH  079%=      5-min Rain = 0
KMC1 231352Z 12009KT 24/20 A2994 RMK A01 T02390201  RH  079%=      5-min Rain = 0
KMC1 231353Z 10010G16KT 24/20 A2994 RMK A01 T02390201  RH  079%=      5-min Rain = 0
KMC1 231354Z 11009KT 24/20 A2994 RMK A01 T02390201  RH  079%=      5-min Rain = 0
KMC1 231355Z 12010KT 24/20 A2994 RMK A01 T02390200  RH  079%=      5-min Rain = 0
KMC1 231356Z 12012G17KT 24/20 A2994 RMK A01 T02390200  RH  079%=      5-min Rain = 0
KMC1 231357Z 12010KT 24/20 A2994 RMK A01 T02390201  RH  079%=      5-min Rain = 0
KMC1 231358Z 13011KT 24/20 A2994 RMK A01 T02390200  RH  079%=      5-min Rain = 0
KMC1 231359Z 12009KT 24/20 A2994 RMK A01 T02380200  RH  079%=      5-min Rain = 0
KMC1 231400Z 12009KT 24/20 A2994 RMK A01 T02390201  RH  079%=      5-min Rain = 0
KMC1 231401Z 14008G13KT 24/20 A2994 RMK A01 T02380200  RH  079%=      5-min Rain = 0
KMC1 231402Z 12006KT 24/20 A2994 RMK A01 T02380201  RH  079%=      5-min Rain = 0
KMC1 231403Z 12013KT 24/20 A2994 RMK A01 T02390200  RH  079%=      5-min Rain = 0
KMC1 231404Z 12010KT 24/20 A2994 RMK A01 T02390200  RH  079%=      5-min Rain = 0
KMC1 231405Z 12010G16KT 24/20 A2994 RMK A01 T02390200  RH  079%=      5-min Rain = 0
KMC1 231406Z 11009KT 24/20 A2994 RMK A01 T02390200  RH  079%=      5-min Rain = 0
KMC1 231407Z 12011G18KT 24/20 A2994 RMK A01 T02390199  RH  079%=      5-min Rain = 0
KMC1 231408Z 12010G15KT 24/20 A2994 RMK A01 T02390199  RH  079%=      5-min Rain = 0
KMC1 231409Z 13012G17KT 24/20 A2994 RMK A01 T02390200  RH  079%=      5-min Rain = 0
KMC1 231410Z 13012G17KT 24/20 A2994 RMK A01 T02390199  RH  078%=      5-min Rain = 0
KMC1 231411Z 13011G16KT 24/20 A2994 RMK A01 T02380199  RH  078%=      5-min Rain = 0
KMC1 231412Z 12009KT 24/20 A2994 RMK A01 T02390199  RH  079%=      5-min Rain = 0
KMC1 231413Z 12011KT 24/20 A2994 RMK A01 T02390199  RH  079%=      5-min Rain = 0
KMC1 231414Z 13011KT 24/20 A2994 RMK A01 T02390199  RH  078%=      5-min Rain = 0
KMC1 231415Z 11011G16KT 24/20 A2994 RMK A01 T02390199  RH  078%=      5-min Rain = 0
KMC1 231416Z 11011KT 24/20 A2994 RMK A01 T02390199  RH  078%=      5-min Rain = 0
KMC1 231417Z 13011KT 24/20 A2994 RMK A01 T02390199  RH  078%=      5-min Rain = 0
KMC1 231418Z 12011KT 24/20 A2994 RMK A01 T02390199  RH  078%=      5-min Rain = 0
KMC1 231419Z 13012KT 24/20 A2994 RMK A01 T02390199  RH  078%=      5-min Rain = 0
KMC1 231420Z 11008KT 24/20 A2994 RMK A01 T02390199  RH  078%=      5-min Rain = 0
KMC1 231421Z 12009KT 24/20 A2994 RMK A01 T02390200  RH  079%=      5-min Rain = 0
KMC1 231422Z 12009G15KT 24/20 A2994 RMK A01 T02400199  RH  078%=      5-min Rain = 0
KMC1 231423Z 12011KT 24/20 A2994 RMK A01 T02400199  RH  078%=      5-min Rain = 0
KMC1 231424Z 12010KT 24/20 A2994 RMK A01 T02400199  RH  078%=      5-min Rain = 0
KMC1 231425Z 11012G18KT 24/20 A2994 RMK A01 T02400199  RH  078%=      5-min Rain = 0
KMC1 231426Z 12011KT 24/20 A2995 RMK A01 T02400199  RH  078%=      5-min Rain = 0
KMC1 231427Z 13010KT 24/20 A2995 RMK A01 T02400199  RH  078%=      5-min Rain = 0
KMC1 231428Z 13009KT 24/20 A2995 RMK A01 T02400200  RH  078%=      5-min Rain = 0
KMC1 231429Z 13011KT 24/20 A2995 RMK A01 T02400200  RH  078%=      5-min Rain = 0
KMC1 231430Z 12011KT 24/20 A2995 RMK A01 T02410199  RH  078%=      5-min Rain = 0
KMC1 231431Z 13009KT 24/20 A2995 RMK A01 T02410200  RH  078%=      5-min Rain = 0
KMC1 231432Z 13009KT 24/20 A2995 RMK A01 T02410199  RH  077%=      5-min Rain = 0
KMC1 231433Z 13010KT 24/20 A2995 RMK A01 T02410199  RH  077%=      5-min Rain = 0
KMC1 231434Z 13007KT 24/20 A2995 RMK A01 T02420199  RH  077%=      5-min Rain = 0
KMC1 231435Z 13008KT 24/20 A2995 RMK A01 T02420199  RH  077%=      5-min Rain = 0
KMC1 231436Z 11013KT 24/20 A2995 RMK A01 T02420199  RH  077%=      5-min Rain = 0
KMC1 231437Z 14012G17KT 24/20 A2995 RMK A01 T02420198  RH  076%=      5-min Rain = 0
KMC1 231438Z 12009KT 24/20 A2995 RMK A01 T02420199  RH  077%=      5-min Rain = 0
KMC1 231439Z 12010KT 24/20 A2995 RMK A01 T02430199  RH  077%=      5-min Rain = 0
KMC1 231440Z 12013KT 24/20 A2995 RMK A01 T02430199  RH  076%=      5-min Rain = 0
KMC1 231441Z 12015KT 24/20 A2995 RMK A01 T02430199  RH  076%=      5-min Rain = 0
KMC1 231442Z 12014KT 24/20 A2995 RMK A01 T02440199  RH  076%=      5-min Rain = 0
KMC1 231443Z 13012G17KT 24/20 A2995 RMK A01 T02430199  RH  076%=      5-min Rain = 0
KMC1 231444Z 13009G14KT 24/20 A2995 RMK A01 T02430199  RH  076%=      5-min Rain = 0
KMC1 231445Z 12013KT 24/20 A2995 RMK A01 T02440200  RH  076%=      5-min Rain = 0
KMC1 231446Z 12011KT 24/20 A2995 RMK A01 T02440199  RH  076%=      5-min Rain = 0
KMC1 231447Z 13012KT 24/20 A2995 RMK A01 T02430199  RH  076%=      5-min Rain = 0
KMC1 231448Z 12012KT 24/20 A2995 RMK A01 T02440199  RH  076%=      5-min Rain = 0
KMC1 231449Z 13010KT 24/20 A2995 RMK A01 T02440199  RH  076%=      5-min Rain = 0
KMC1 231450Z 14007KT 24/20 A2995 RMK A01 T02430200  RH  077%=      5-min Rain = 0
KMC1 231451Z 13011G18KT 24/20 A2995 RMK A01 T02430199  RH  076%=      5-min Rain = 0
KMC1 231452Z 12013KT 24/20 A2995 RMK A01 T02430199  RH  076%=      5-min Rain = 0
KMC1 231453Z 13013G18KT 24/20 A2995 RMK A01 T02430198  RH  076%=      5-min Rain = 0
KMC1 231454Z 13013KT 24/20 A2995 RMK A01 T02430198  RH  076%=      5-min Rain = 0
KMC1 231455Z 12012KT 24/20 A2995 RMK A01 T02420198  RH  076%=      5-min Rain = 0
KMC1 231456Z 11011KT 24/20 A2995 RMK A01 T02420198  RH  077%=      5-min Rain = 0
KMC1 231457Z 13012G18KT 24/20 A2995 RMK A01 T02420199  RH  077%=      5-min Rain = 0
KMC1 231458Z 12013G18KT 24/20 A2995 RMK A01 T02420199  RH  077%=      5-min Rain = 0
KMC1 231459Z 12014G19KT 24/20 A2995 RMK A01 T02420199  RH  077%=      5-min Rain = 0
KMC1 231500Z 13012KT 24/20 A2995 RMK A01 T02420199  RH  077%=      5-min Rain = 0
KMC1 231501Z 13013KT 24/20 A2995 RMK A01 T02420199  RH  077%=      5-min Rain = 0
KMC1 231502Z 13009KT 24/20 A2995 RMK A01 T02420199  RH  077%=      5-min Rain = 0
KMC1 231503Z 14009G15KT 24/20 A2995 RMK A01 T02420200  RH  077%=      5-min Rain = 0
KMC1 231504Z 14010KT 24/20 A2995 RMK A01 T02420199  RH  077%=      5-min Rain = 0
KMC1 231505Z 13010KT 24/20 A2995 RMK A01 T02420199  RH  077%=      5-min Rain = 0
KMC1 231506Z 14007G13KT 24/20 A2995 RMK A01 T02420199  RH  077%=      5-min Rain = 0
KMC1 231507Z 13009KT 24/20 A2995 RMK A01 T02420199  RH  077%=      5-min Rain = 0
KMC1 231508Z 13010KT 24/20 A2995 RMK A01 T02420199  RH  077%=      5-min Rain = 0
KMC1 231509Z 13013G18KT 24/20 A2995 RMK A01 T02430199  RH  077%=      5-min Rain = 0
KMC1 231510Z 13011G16KT 24/20 A2995 RMK A01 T02430199  RH  076%=      5-min Rain = 0
KMC1 231511Z 13008KT 24/20 A2995 RMK A01 T02430199  RH  077%=      5-min Rain = 0
KMC1 231512Z 13011KT 24/20 A2995 RMK A01 T02430199  RH  076%=      5-min Rain = 0
KMC1 231513Z 13011KT 24/20 A2995 RMK A01 T02440199  RH  076%=      5-min Rain = 0
KMC1 231514Z 12011G16KT 24/20 A2995 RMK A01 T02430199  RH  076%=      5-min Rain = 0
KMC1 231515Z 12012G17KT 24/20 A2995 RMK A01 T02430199  RH  076%=      5-min Rain = 0
KMC1 231516Z 12013KT 24/20 A2995 RMK A01 T02430199  RH  076%=      5-min Rain = 0
KMC1 231517Z 13011KT 24/20 A2995 RMK A01 T02430199  RH  076%=      5-min Rain = 0
KMC1 231518Z 13011G16KT 24/20 A2995 RMK A01 T02440199  RH  076%=      5-min Rain = 0
KMC1 231519Z 13012G17KT 24/20 A2995 RMK A01 T02430199  RH  076%=      5-min Rain = 0
KMC1 231520Z 13012KT 24/20 A2995 RMK A01 T02430199  RH  076%=      5-min Rain = 0
KMC1 231521Z 13011KT 24/20 A2995 RMK A01 T02440199  RH  076%=      5-min Rain = 0
KMC1 231522Z 13010KT 24/20 A2995 RMK A01 T02440199  RH  076%=      5-min Rain = 0
KMC1 231523Z 12012KT 24/20 A2995 RMK A01 T02430199  RH  076%=      5-min Rain = 0
KMC1 231524Z 13010KT 24/20 A2995 RMK A01 T02440199  RH  076%=      5-min Rain = 0
KMC1 231525Z 13008KT 24/20 A2995 RMK A01 T02440199  RH  076%=      5-min Rain = 0
KMC1 231526Z 15008KT 24/20 A2995 RMK A01 T02440200  RH  076%=      5-min Rain = 0
KMC1 231527Z 14011G17KT 25/20 A2995 RMK A01 T02450200  RH  076%=      5-min Rain = 0
KMC1 231528Z 13010G16KT 25/20 A2995 RMK A01 T02450199  RH  076%=      5-min Rain = 0
KMC1 231529Z 12010KT 25/20 A2995 RMK A01 T02450199  RH  076%=      5-min Rain = 0
KMC1 231530Z 13006KT 25/20 A2995 RMK A01 T02450199  RH  076%=      5-min Rain = 0
KMC1 231531Z 13009KT 25/20 A2995 RMK A01 T02460200  RH  076%=      5-min Rain = 0
KMC1 231532Z 13011KT 25/20 A2995 RMK A01 T02460199  RH  075%=      5-min Rain = 0
KMC1 231533Z 13009KT 25/20 A2995 RMK A01 T02460199  RH  075%=      5-min Rain = 0
KMC1 231534Z 13008KT 25/20 A2995 RMK A01 T02470200  RH  075%=      5-min Rain = 0
KMC1 231535Z 13008KT 25/20 A2995 RMK A01 T02470199  RH  074%=      5-min Rain = 0
KMC1 231536Z 13012G17KT 25/20 A2995 RMK A01 T02480200  RH  074%=      5-min Rain = 0
KMC1 231537Z 13008KT 25/20 A2995 RMK A01 T02480199  RH  074%=      5-min Rain = 0
KMC1 231538Z 15009KT 25/20 A2995 RMK A01 T02480200  RH  074%=      5-min Rain = 0
KMC1 231539Z 15008KT 25/20 A2995 RMK A01 T02490200  RH  074%=      5-min Rain = 0
KMC1 231540Z 13008KT 25/20 A2995 RMK A01 T02500199  RH  073%=      5-min Rain = 0
KMC1 231541Z 14008KT 25/20 A2995 RMK A01 T02500200  RH  074%=      5-min Rain = 0
KMC1 231542Z 13009KT 25/20 A2995 RMK A01 T02510199  RH  073%=      5-min Rain = 0
KMC1 231543Z 13011KT 25/20 A2995 RMK A01 T02510199  RH  073%=      5-min Rain = 0
KMC1 231544Z 13013G18KT 25/20 A2995 RMK A01 T02510198  RH  072%=      5-min Rain = 0
KMC1 231545Z 12011KT 25/20 A2995 RMK A01 T02520198  RH  072%=      5-min Rain = 0
KMC1 231546Z 12013KT 25/20 A2995 RMK A01 T02520198  RH  072%=      5-min Rain = 0
KMC1 231547Z 13010G17KT 25/20 A2995 RMK A01 T02520198  RH  072%=      5-min Rain = 0
KMC1 231548Z 13012G18KT 25/20 A2995 RMK A01 T02530199  RH  072%=      5-min Rain = 0
KMC1 231549Z 15009G14KT 25/20 A2995 RMK A01 T02530199  RH  072%=      5-min Rain = 0
KMC1 231550Z 16006G12KT 25/20 A2995 RMK A01 T02540200  RH  072%=      5-min Rain = 0
KMC1 231551Z 14008G14KT 26/20 A2995 RMK A01 T02560201  RH  071%=      5-min Rain = 0
KMC1 231552Z 15008KT 26/20 A2995 RMK A01 T02570202  RH  071%=      5-min Rain = 0
KMC1 231553Z 14013KT 26/20 A2995 RMK A01 T02590200  RH  070%=      5-min Rain = 0
KMC1 231554Z 15011G16KT 26/20 A2994 RMK A01 T02590199  RH  070%=      5-min Rain = 0
KMC1 231555Z 14008G14KT 26/20 A2994 RMK A01 T02600200  RH  070%=      5-min Rain = 0
KMC1 231556Z 14011G16KT 26/20 A2994 RMK A01 T02610202  RH  070%=      5-min Rain = 0
KMC1 231557Z 15012KT 26/20 A2994 RMK A01 T02630200  RH  069%=      5-min Rain = 0
KMC1 231558Z 15013KT 26/20 A2994 RMK A01 T02630200  RH  068%=      5-min Rain = 0
KMC1 231559Z 16014G21KT 26/20 A2994 RMK A01 T02630200  RH  068%=      5-min Rain = 0
KMC1 231600Z 14012KT 26/20 A2994 RMK A01 T02630198  RH  068%=      5-min Rain = 0
KMC1 231601Z 14014G20KT 26/20 A2994 RMK A01 T02630198  RH  068%=      5-min Rain = 0
KMC1 231602Z 14014G19KT 26/20 A2994 RMK A01 T02630198  RH  067%=      5-min Rain = 0
KMC1 231603Z 14010KT 26/20 A2994 RMK A01 T02640198  RH  067%=      5-min Rain = 0
KMC1 231604Z 16010KT 26/20 A2994 RMK A01 T02640199  RH  067%=      5-min Rain = 0
KMC1 231605Z 16010G17KT 27/20 A2994 RMK A01 T02660201  RH  067%=      5-min Rain = 0
KMC1 231606Z 15010G16KT 27/20 A2994 RMK A01 T02690201  RH  066%=      5-min Rain = 0
KMC1 231607Z 16010G15KT 27/20 A2994 RMK A01 T02730203  RH  066%=      5-min Rain = 0
KMC1 231608Z 16009G17KT 28/20 A2994 RMK A01 T02770203  RH  064%=      5-min Rain = 0
KMC1 231609Z 16008KT 28/20 A2994 RMK A01 T02790203  RH  064%=      5-min Rain = 0
KMC1 231610Z 16008KT 28/20 A2994 RMK A01 T02790203  RH  063%=      5-min Rain = 0
KMC1 231611Z 16011KT 28/20 A2994 RMK A01 T02790201  RH  063%=      5-min Rain = 0
KMC1 231612Z 16009G14KT 28/20 A2994 RMK A01 T02760201  RH  064%=      5-min Rain = 0
KMC1 231613Z 15010KT 28/20 A2994 RMK A01 T02750201  RH  064%=      5-min Rain = 0
KMC1 231614Z 15008KT 28/20 A2994 RMK A01 T02750202  RH  064%=      5-min Rain = 0
KMC1 231615Z 14007KT 28/20 A2994 RMK A01 T02750203  RH  065%=      5-min Rain = 0
KMC1 231616Z 15011KT 28/20 A2994 RMK A01 T02770203  RH  064%=      5-min Rain = 0
KMC1 231617Z 13010G15KT 28/20 A2994 RMK A01 T02790203  RH  063%=      5-min Rain = 0
KMC1 231618Z 14008G14KT 28/20 A2994 RMK A01 T02800202  RH  062%=      5-min Rain = 0
KMC1 231619Z 16010KT 28/20 A2994 RMK A01 T02800201  RH  062%=      5-min Rain = 0
KMC1 231620Z 16010G18KT 28/20 A2994 RMK A01 T02780203  RH  064%=      5-min Rain = 0
KMC1 231621Z 16008KT 28/20 A2995 RMK A01 T02760201  RH  064%=      5-min Rain = 0
KMC1 231622Z 16011KT 28/20 A2995 RMK A01 T02760202  RH  064%=      5-min Rain = 0
KMC1 231623Z 15008G17KT 28/20 A2995 RMK A01 T02760201  RH  064%=      5-min Rain = 0
KMC1 231624Z 15010KT 28/20 A2995 RMK A01 T02770200  RH  063%=      5-min Rain = 0
KMC1 231625Z 16008KT 28/20 A2995 RMK A01 T02750201  RH  064%=      5-min Rain = 0
KMC1 231626Z 18011KT 27/20 A2995 RMK A01 T02740200  RH  064%=      5-min Rain = 0
KMC1 231627Z 16013KT 27/20 A2995 RMK A01 T02730199  RH  064%=      5-min Rain = 0
KMC1 231628Z 16011KT 27/20 A2995 RMK A01 T02720200  RH  064%=      5-min Rain = 0
KMC1 231629Z 17008KT 27/20 A2995 RMK A01 T02710200  RH  065%=      5-min Rain = 0
KMC1 231630Z 16011KT 27/20 A2995 RMK A01 T02710201  RH  065%=      5-min Rain = 0
KMC1 231631Z 17009KT 27/20 A2995 RMK A01 T02700199  RH  065%=      5-min Rain = 0
KMC1 231632Z 17009KT 27/20 A2995 RMK A01 T02710201  RH  066%=      5-min Rain = 0
KMC1 231633Z 16011KT 27/20 A2995 RMK A01 T02720202  RH  065%=      5-min Rain = 0
KMC1 231634Z 16013G19KT 28/20 A2995 RMK A01 T02750202  RH  064%=      5-min Rain = 0
KMC1 231635Z 16013KT 28/20 A2995 RMK A01 T02780201  RH  063%=      5-min Rain = 0
KMC1 231636Z 16011KT 28/20 A2995 RMK A01 T02780202  RH  063%=      5-min Rain = 0
KMC1 231637Z 16009G14KT 28/20 A2995 RMK A01 T02770202  RH  063%=      5-min Rain = 0
KMC1 231638Z 16014G19KT 28/20 A2995 RMK A01 T02760201  RH  064%=      5-min Rain = 0
KMC1 231639Z 15011G16KT 27/20 A2995 RMK A01 T02740201  RH  064%=      5-min Rain = 0
KMC1 231640Z 15013G20KT 27/20 A2995 RMK A01 T02730201  RH  065%=      5-min Rain = 0
KMC1 231641Z 15013KT 27/20 A2995 RMK A01 T02730200  RH  065%=      5-min Rain = 0
KMC1 231642Z 14013KT 27/20 A2995 RMK A01 T02730200  RH  065%=      5-min Rain = 0
KMC1 231643Z 16013G19KT 27/20 A2995 RMK A01 T02730200  RH  064%=      5-min Rain = 0
KMC1 231644Z 14010KT 27/20 A2995 RMK A01 T02730202  RH  065%=      5-min Rain = 0
KMC1 231645Z 14008KT 28/21 A2995 RMK A01 T02760205  RH  065%=      5-min Rain = 0
KMC1 231646Z 14014KT 28/20 A2995 RMK A01 T02820204  RH  063%=      5-min Rain = 0
KMC1 231647Z 13011KT 28/20 A2995 RMK A01 T02830202  RH  062%=      5-min Rain = 0
KMC1 231648Z 14009KT 28/20 A2994 RMK A01 T02820204  RH  063%=      5-min Rain = 0
KMC1 231649Z 15011G17KT 28/20 A2995 RMK A01 T02830204  RH  062%=      5-min Rain = 0
KMC1 231650Z 14010G20KT 28/20 A2995 RMK A01 T02830203  RH  062%=      5-min Rain = 0
KMC1 231651Z 16009G18KT 28/20 A2995 RMK A01 T02830204  RH  062%=      5-min Rain = 0
KMC1 231652Z 16012G19KT 29/20 A2995 RMK A01 T02850204  RH  061%=      5-min Rain = 0
KMC1 231653Z 16012KT 29/20 A2995 RMK A01 T02870204  RH  061%=      5-min Rain = 0
KMC1 231654Z 16010G16KT 29/20 A2994 RMK A01 T02870202  RH  060%=      5-min Rain = 0
KMC1 231655Z 15008G14KT 28/20 A2994 RMK A01 T02840202  RH  061%=      5-min Rain = 0
KMC1 231656Z 16008KT 28/20 A2994 RMK A01 T02840204  RH  062%=      5-min Rain = 0
KMC1 231657Z 18011G18KT 29/20 A2994 RMK A01 T02870204  RH  061%=      5-min Rain = 0
KMC1 231658Z 17009KT 29/20 A2994 RMK A01 T02880204  RH  060%=      5-min Rain = 0
KMC1 231659Z 17009KT 29/21 A2994 RMK A01 T02890205  RH  060%=      5-min Rain = 0
KMC1 231700Z 17013KT 29/20 A2994 RMK A01 T02920204  RH  059%=      5-min Rain = 0
KMC1 231701Z 17013G18KT 29/20 A2994 RMK A01 T02910204  RH  059%=      5-min Rain = 0
KMC1 231702Z 17009KT 29/20 A2994 RMK A01 T02870201  RH  060%=      5-min Rain = 0
KMC1 231703Z 16008KT 28/20 A2994 RMK A01 T02840203  RH  061%=      5-min Rain = 0
KMC1 231704Z 15010KT 28/20 A2994 RMK A01 T02840203  RH  062%=      5-min Rain = 0
KMC1 231705Z 14010G16KT 28/20 A2994 RMK A01 T02840202  RH  061%=      5-min Rain = 0
KMC1 231706Z 16008KT 29/20 A2994 RMK A01 T02850203  RH  061%=      5-min Rain = 0
KMC1 231707Z 17009G16KT 29/20 A2994 RMK A01 T02860203  RH  061%=      5-min Rain = 0
KMC1 231708Z 17010KT 29/20 A2994 RMK A01 T02860202  RH  061%=      5-min Rain = 0
KMC1 231709Z 18012KT 28/20 A2994 RMK A01 T02830201  RH  061%=      5-min Rain = 0
KMC1 231710Z 15009KT 28/20 A2994 RMK A01 T02820202  RH  062%=      5-min Rain = 0
KMC1 231711Z 14010G16KT 28/20 A2994 RMK A01 T02810201  RH  062%=      5-min Rain = 0
KMC1 231712Z 15012G18KT 29/20 A2994 RMK A01 T02850203  RH  061%=      5-min Rain = 0
KMC1 231713Z 16010KT 29/21 A2994 RMK A01 T02890205  RH  060%=      5-min Rain = 0
KMC1 231714Z 17009KT 29/20 A2994 RMK A01 T02920204  RH  059%=      5-min Rain = 0
KMC1 231715Z 15011KT 29/20 A2994 RMK A01 T02940204  RH  059%=      5-min Rain = 0
KMC1 231716Z 16011KT 30/21 A2994 RMK A01 T02950205  RH  058%=      5-min Rain = 0
KMC1 231717Z 18011G17KT 30/21 A2994 RMK A01 T02960205  RH  058%=      5-min Rain = 0
KMC1 231718Z 16012G17KT 30/20 A2993 RMK A01 T02960202  RH  057%=      5-min Rain = 0
KMC1 231719Z 14012G19KT 30/20 A2993 RMK A01 T02950203  RH  057%=      5-min Rain = 0
KMC1 231720Z 16007G12KT 30/20 A2993 RMK A01 T02950204  RH  058%=      5-min Rain = 0
KMC1 231721Z 17015G20KT 30/20 A2993 RMK A01 T02980204  RH  057%=      5-min Rain = 0
KMC1 231722Z 16014G24KT 30/20 A2993 RMK A01 T02980202  RH  056%=      5-min Rain = 0
KMC1 231723Z 16014KT 30/20 A2993 RMK A01 T02960202  RH  057%=      5-min Rain = 0
KMC1 231724Z 17012G18KT 29/20 A2993 RMK A01 T02920201  RH  058%=      5-min Rain = 0
KMC1 231725Z 16013KT 29/20 A2993 RMK A01 T02920203  RH  059%=      5-min Rain = 0
KMC1 231726Z 15010KT 29/20 A2993 RMK A01 T02940204  RH  058%=      5-min Rain = 0
KMC1 231727Z 15012G17KT 30/20 A2993 RMK A01 T02950202  RH  057%=      5-min Rain = 0
KMC1 231728Z 16012G18KT 29/20 A2993 RMK A01 T02940202  RH  058%=      5-min Rain = 0
KMC1 231729Z 17012G20KT 29/20 A2993 RMK A01 T02940203  RH  058%=      5-min Rain = 0
KMC1 231730Z 17012G18KT 30/20 A2993 RMK A01 T02950203  RH  058%=      5-min Rain = 0
KMC1 231731Z 18015KT 30/20 A2993 RMK A01 T02950202  RH  057%=      5-min Rain = 0
KMC1 231732Z 16013KT 29/20 A2993 RMK A01 T02940201  RH  057%=      5-min Rain = 0
KMC1 231733Z 14009KT 29/20 A2993 RMK A01 T02920202  RH  058%=      5-min Rain = 0
KMC1 231734Z 15009G14KT 29/20 A2993 RMK A01 T02930203  RH  058%=      5-min Rain = 0
KMC1 231735Z 15011G16KT 30/20 A2993 RMK A01 T02970204  RH  057%=      5-min Rain = 0
KMC1 231736Z 14011G18KT 30/20 A2993 RMK A01 T02980201  RH  056%=      5-min Rain = 0
KMC1 231737Z 16009G14KT 30/20 A2993 RMK A01 T02970201  RH  056%=      5-min Rain = 0
KMC1 231738Z 18011KT 30/20 A2993 RMK A01 T02960201  RH  057%=      5-min Rain = 0
KMC1 231739Z 16013KT 30/20 A2993 RMK A01 T02950201  RH  057%=      5-min Rain = 0
KMC1 231740Z 16010G15KT 29/20 A2993 RMK A01 T02940202  RH  057%=      5-min Rain = 0
KMC1 231741Z 17009KT 29/20 A2993 RMK A01 T02930202  RH  058%=      5-min Rain = 0
KMC1 231742Z 17011KT 29/20 A2993 RMK A01 T02930201  RH  058%=      5-min Rain = 0
KMC1 231743Z 17008G15KT 29/20 A2993 RMK A01 T02920202  RH  059%=      5-min Rain = 0
KMC1 231744Z 15008KT 29/20 A2992 RMK A01 T02910202  RH  059%=      5-min Rain = 0
KMC1 231745Z 18008KT 29/20 A2992 RMK A01 T02940204  RH  058%=      5-min Rain = 0
KMC1 231746Z 16010G15KT 30/21 A2993 RMK A01 T02980205  RH  057%=      5-min Rain = 0
KMC1 231747Z 15009KT 30/21 A2992 RMK A01 T03000205  RH  057%=      5-min Rain = 0
KMC1 231748Z 14011G16KT 30/21 A2992 RMK A01 T03020206  RH  057%=      5-min Rain = 0
KMC1 231749Z 15010KT 30/20 A2992 RMK A01 T03020204  RH  056%=      5-min Rain = 0
KMC1 231750Z 16010G15KT 30/20 A2992 RMK A01 T03000203  RH  056%=      5-min Rain = 0
KMC1 231751Z 15008KT 30/20 A2992 RMK A01 T02990204  RH  057%=      5-min Rain = 0
KMC1 231752Z 15009KT 30/20 A2992 RMK A01 T03000204  RH  057%=      5-min Rain = 0
KMC1 231753Z 16010KT 30/20 A2992 RMK A01 T03000204  RH  056%=      5-min Rain = 0
KMC1 231754Z 16009KT 30/20 A2992 RMK A01 T02990203  RH  056%=      5-min Rain = 0
KMC1 231755Z 17009KT 30/20 A2992 RMK A01 T02960204  RH  057%=      5-min Rain = 0
KMC1 231756Z 16011KT 30/20 A2992 RMK A01 T02960203  RH  057%=      5-min Rain = 0
KMC1 231757Z 15008KT 30/21 A2992 RMK A01 T02960205  RH  058%=      5-min Rain = 0
KMC1 231758Z 15014KT 30/20 A2992 RMK A01 T03010204  RH  056%=      5-min Rain = 0
KMC1 231759Z 14014G19KT 30/20 A2992 RMK A01 T03020202  RH  055%=      5-min Rain = 0
KMC1 231800Z 13011G16KT 30/20 A2992 RMK A01 T02990201  RH  056%=      5-min Rain = 0
KMC1 231801Z 14008G13KT 30/20 A2992 RMK A01 T02960202  RH  057%=      5-min Rain = 0
KMC1 231802Z 15008KT 30/20 A2992 RMK A01 T02980202  RH  056%=      5-min Rain = 0
KMC1 231803Z 17012G17KT 30/20 A2992 RMK A01 T03020204  RH  056%=      5-min Rain = 0
KMC1 231804Z 16012G17KT 31/20 A2992 RMK A01 T03050202  RH  054%=      5-min Rain = 0
KMC1 231805Z 15013G19KT 31/20 A2992 RMK A01 T03050202  RH  054%=      5-min Rain = 0
KMC1 231806Z 16014KT 30/20 A2992 RMK A01 T03020200  RH  054%=      5-min Rain = 0
KMC1 231807Z 16011KT 30/20 A2992 RMK A01 T02990199  RH  055%=      5-min Rain = 0
KMC1 231808Z 17013G18KT 30/20 A2991 RMK A01 T02980202  RH  056%=      5-min Rain = 0
KMC1 231809Z 17012G18KT 30/20 A2991 RMK A01 T03000201  RH  055%=      5-min Rain = 0
KMC1 231810Z 16010KT 30/20 A2991 RMK A01 T03010200  RH  055%=      5-min Rain = 0
KMC1 231811Z 15011KT 30/20 A2991 RMK A01 T02990200  RH  055%=      5-min Rain = 0
KMC1 231812Z 16013KT 30/20 A2991 RMK A01 T02990201  RH  055%=      5-min Rain = 0
KMC1 231813Z 14013G19KT 30/20 A2991 RMK A01 T03030200  RH  054%=      5-min Rain = 0
KMC1 231814Z 15010G17KT 31/20 A2991 RMK A01 T03070199  RH  053%=      5-min Rain = 0
KMC1 231815Z 14015KT 31/20 A2991 RMK A01 T03090198  RH  052%=      5-min Rain = 0
KMC1 231816Z 14014KT 31/20 A2991 RMK A01 T03060198  RH  052%=      5-min Rain = 0
KMC1 231817Z 14010G15KT 30/20 A2991 RMK A01 T03040201  RH  054%=      5-min Rain = 0
KMC1 231818Z 16013G23KT 31/20 A2991 RMK A01 T03070202  RH  053%=      5-min Rain = 0
KMC1 231819Z 16014G19KT 31/20 A2991 RMK A01 T03080198  RH  052%=      5-min Rain = 0
KMC1 231820Z 17018G23KT 31/20 A2991 RMK A01 T03050195  RH  052%=      5-min Rain = 0
KMC1 231821Z 17015G21KT 30/19 A2991 RMK A01 T03000194  RH  053%=      5-min Rain = 0
KMC1 231822Z 17013G18KT 30/20 A2991 RMK A01 T02980196  RH  054%=      5-min Rain = 0
KMC1 231823Z 16016KT 30/20 A2991 RMK A01 T02970196  RH  055%=      5-min Rain = 0
KMC1 231824Z 17014G19KT 30/20 A2991 RMK A01 T02960196  RH  055%=      5-min Rain = 0
KMC1 231825Z 15012G18KT 30/20 A2991 RMK A01 T02960195  RH  055%=      5-min Rain = 0
KMC1 231826Z 17014G20KT 30/20 A2991 RMK A01 T02980198  RH  055%=      5-min Rain = 0
KMC1 231827Z 16012G17KT 30/20 A2991 RMK A01 T03010198  RH  054%=      5-min Rain = 0
KMC1 231828Z 14011G17KT 31/20 A2991 RMK A01 T03050201  RH  054%=      5-min Rain = 0
KMC1 231829Z 15009KT 31/20 A2991 RMK A01 T03060203  RH  054%=      5-min Rain = 0
KMC1 231830Z 16011G18KT 31/20 A2991 RMK A01 T03070201  RH  053%=      5-min Rain = 0
KMC1 231831Z 16011G17KT 31/20 A2991 RMK A01 T03050199  RH  053%=      5-min Rain = 0
KMC1 231832Z 14011KT 30/20 A2991 RMK A01 T03030199  RH  054%=      5-min Rain = 0
KMC1 231833Z 15011G16KT 30/20 A2991 RMK A01 T03020200  RH  054%=      5-min Rain = 0
KMC1 231834Z 17011KT 30/20 A2991 RMK A01 T03010200  RH  055%=      5-min Rain = 0
KMC1 231835Z 16009KT 30/20 A2991 RMK A01 T03010200  RH  055%=      5-min Rain = 0
KMC1 231836Z 17014KT 30/20 A2991 RMK A01 T03020196  RH  053%=      5-min Rain = 0
KMC1 231837Z 17014KT 30/20 A2991 RMK A01 T02990195  RH  054%=      5-min Rain = 0
KMC1 231838Z 17015KT 30/20 A2991 RMK A01 T02970196  RH  055%=      5-min Rain = 0
KMC1 231839Z 14010G15KT 30/20 A2991 RMK A01 T02960197  RH  055%=      5-min Rain = 0
KMC1 231840Z 14011G17KT 30/20 A2991 RMK A01 T02960196  RH  055%=      5-min Rain = 0
KMC1 231841Z 14010KT 30/20 A2991 RMK A01 T02970198  RH  055%=      5-min Rain = 0
KMC1 231842Z 15013KT 30/20 A2991 RMK A01 T02980199  RH  055%=      5-min Rain = 0
KMC1 231843Z 13014G20KT 30/20 A2991 RMK A01 T02980199  RH  056%=      5-min Rain = 0
KMC1 231844Z 14012KT 30/20 A2991 RMK A01 T02960200  RH  056%=      5-min Rain = 0
KMC1 231845Z 14013KT 30/20 A299 RMK A01 T02970201  RH  056%=      5-min Rain = 0
KMC1 231846Z 15013G18KT 30/20 A299 RMK A01 T03010200  RH  055%=      5-min Rain = 0
KMC1 231847Z 14009G14KT 30/20 A2991 RMK A01 T03030200  RH  054%=      5-min Rain = 0
KMC1 231848Z 15008KT 31/20 A2991 RMK A01 T03070201  RH  053%=      5-min Rain = 0
KMC1 231849Z 14012G17KT 31/20 A299 RMK A01 T03090199  RH  052%=      5-min Rain = 0
KMC1 231850Z 15013KT 31/20 A299 RMK A01 T03100198  RH  051%=      5-min Rain = 0
KMC1 231851Z 15012KT 31/20 A299 RMK A01 T03110199  RH  051%=      5-min Rain = 0
KMC1 231852Z 16009KT 31/20 A299 RMK A01 T03120200  RH  052%=      5-min Rain = 0
KMC1 231853Z 14011KT 31/20 A299 RMK A01 T03120199  RH  051%=      5-min Rain = 0
KMC1 231854Z 15013KT 31/20 A299 RMK A01 T03110198  RH  051%=      5-min Rain = 0
KMC1 231855Z 16012KT 31/20 A299 RMK A01 T03120198  RH  051%=      5-min Rain = 0
KMC1 231856Z 16013KT 31/20 A299 RMK A01 T03130198  RH  051%=      5-min Rain = 0
KMC1 231857Z 15010G15KT 31/20 A299 RMK A01 T03120199  RH  051%=      5-min Rain = 0
KMC1 231858Z 17011G19KT 31/20 A299 RMK A01 T03130199  RH  051%=      5-min Rain = 0
KMC1 231859Z 17015KT 31/20 A299 RMK A01 T03130198  RH  050%=      5-min Rain = 0
KMC1 231900Z 16013G19KT 31/20 A299 RMK A01 T03100195  RH  050%=      5-min Rain = 0
KMC1 231901Z 16008G13KT 31/19 A299 RMK A01 T03060194  RH  051%=      5-min Rain = 0
KMC1 231902Z 14007G12KT 31/20 A2989 RMK A01 T03050196  RH  052%=      5-min Rain = 0
KMC1 231903Z 14010G16KT 31/20 A2989 RMK A01 T03080196  RH  051%=      5-min Rain = 0
KMC1 231904Z 13014KT 31/19 A2989 RMK A01 T03100194  RH  050%=      5-min Rain = 0
KMC1 231905Z 15011KT 31/19 A2989 RMK A01 T03090194  RH  050%=      5-min Rain = 0
KMC1 231906Z 15014KT 31/19 A2989 RMK A01 T03090192  RH  050%=      5-min Rain = 0
KMC1 231907Z 15010KT 31/19 A2989 RMK A01 T03090193  RH  050%=      5-min Rain = 0
KMC1 231908Z 16012KT 31/20 A2989 RMK A01 T03120197  RH  050%=      5-min Rain = 0
KMC1 231909Z 16012KT 32/20 A2989 RMK A01 T03160195  RH  049%=      5-min Rain = 0
KMC1 231910Z 16010KT 32/20 A2989 RMK A01 T03170196  RH  049%=      5-min Rain = 0
KMC1 231911Z 16014KT 32/20 A2989 RMK A01 T03180196  RH  048%=      5-min Rain = 0
KMC1 231912Z 15015G20KT 32/20 A2989 RMK A01 T03160196  RH  049%=      5-min Rain = 0
KMC1 231913Z 16011KT 32/20 A2989 RMK A01 T03150196  RH  049%=      5-min Rain = 0
KMC1 231914Z 16009G14KT 32/20 A2989 RMK A01 T03160197  RH  049%=      5-min Rain = 0
KMC1 231915Z 17014KT 32/19 A2989 RMK A01 T03190193  RH  047%=      5-min Rain = 0
KMC1 231916Z 15009G14KT 32/20 A2989 RMK A01 T03190197  RH  048%=      5-min Rain = 0
KMC1 231917Z 15015G21KT 32/20 A2989 RMK A01 T03240198  RH  048%=      5-min Rain = 0
KMC1 231918Z 14015G21KT 32/20 A2989 RMK A01 T03230197  RH  047%=      5-min Rain = 0
KMC1 231919Z 15012KT 32/20 A2989 RMK A01 T03200198  RH  049%=      5-min Rain = 0
KMC1 231920Z 14009KT 32/20 A2989 RMK A01 T03170196  RH  049%=      5-min Rain = 0
KMC1 231921Z 13011G16KT 32/20 A2989 RMK A01 T03150197  RH  050%=      5-min Rain = 0
KMC1 231922Z 14010G15KT 32/20 A2989 RMK A01 T03150195  RH  049%=      5-min Rain = 0
KMC1 231923Z 15013G19KT 32/19 A2989 RMK A01 T03150194  RH  049%=      5-min Rain = 0
KMC1 231924Z 15011KT 32/19 A2989 RMK A01 T03150192  RH  048%=      5-min Rain = 0
KMC1 231925Z 15010G17KT 32/20 A2989 RMK A01 T03150195  RH  049%=      5-min Rain = 0
KMC1 231926Z 14013KT 32/20 A2989 RMK A01 T03150195  RH  049%=      5-min Rain = 0
KMC1 231927Z 14010G15KT 32/20 A2989 RMK A01 T03150195  RH  049%=      5-min Rain = 0
KMC1 231928Z 14006KT 31/20 A2989 RMK A01 T03140196  RH  049%=      5-min Rain = 0
KMC1 231929Z 14009G15KT 32/20 A2989 RMK A01 T03150198  RH  050%=      5-min Rain = 0
KMC1 231930Z 14008G13KT 32/20 A2989 RMK A01 T03180199  RH  049%=      5-min Rain = 0
KMC1 231931Z 14009KT 32/20 A2988 RMK A01 T03210201  RH  049%=      5-min Rain = 0
KMC1 231932Z 14011G16KT 32/20 A2988 RMK A01 T03210198  RH  048%=      5-min Rain = 0
KMC1 231933Z 15011KT 32/20 A2989 RMK A01 T03170197  RH  049%=      5-min Rain = 0
KMC1 231934Z 16008KT 31/20 A2988 RMK A01 T03130197  RH  050%=      5-min Rain = 0
KMC1 231935Z 15010G17KT 31/20 A2988 RMK A01 T03120198  RH  051%=      5-min Rain = 0
KMC1 231936Z 14011G16KT 31/20 A2988 RMK A01 T03140197  RH  050%=      5-min Rain = 0
KMC1 231937Z 15007G12KT 32/20 A2988 RMK A01 T03160198  RH  050%=      5-min Rain = 0
KMC1 231938Z 13009KT 32/20 A2988 RMK A01 T03190200  RH  049%=      5-min Rain = 0
KMC1 231939Z 14013G18KT 32/20 A2988 RMK A01 T03220196  RH  047%=      5-min Rain = 0
KMC1 231940Z 15012G17KT 32/19 A2988 RMK A01 T03180190  RH  047%=      5-min Rain = 0
KMC1 231941Z 13013G18KT 32/19 A2988 RMK A01 T03160190  RH  047%=      5-min Rain = 0
KMC1 231942Z 15013G20KT 32/19 A2988 RMK A01 T03160190  RH  047%=      5-min Rain = 0
KMC1 231943Z 16013G19KT 32/19 A2988 RMK A01 T03180190  RH  047%=      5-min Rain = 0
KMC1 231944Z 15013KT 32/19 A2988 RMK A01 T03160191  RH  047%=      5-min Rain = 0
KMC1 231945Z 14011KT 31/19 A2988 RMK A01 T03130192  RH  049%=      5-min Rain = 0
KMC1 231946Z 13012KT 31/19 A2988 RMK A01 T03130191  RH  048%=      5-min Rain = 0
KMC1 231947Z 14013G19KT 32/19 A2988 RMK A01 T03170190  RH  047%=      5-min Rain = 0
KMC1 231948Z 14012G21KT 32/19 A2988 RMK A01 T03180188  RH  046%=      5-min Rain = 0
KMC1 231949Z 15012G20KT 32/19 A2988 RMK A01 T03150188  RH  047%=      5-min Rain = 0
KMC1 231950Z 14013KT 31/19 A2988 RMK A01 T03120189  RH  048%=      5-min Rain = 0
KMC1 231951Z 13013G18KT 31/19 A2987 RMK A01 T03080190  RH  049%=      5-min Rain = 0
KMC1 231952Z 13018KT 31/19 A2987 RMK A01 T03070188  RH  049%=      5-min Rain = 0
KMC1 231953Z 13014KT 31/19 A2987 RMK A01 T03070187  RH  049%=      5-min Rain = 0
KMC1 231954Z 13010G15KT 31/19 A2987 RMK A01 T03100189  RH  048%=      5-min Rain = 0
KMC1 231955Z 13011KT 32/19 A2987 RMK A01 T03150189  RH  047%=      5-min Rain = 0
KMC1 231956Z 14011G16KT 32/19 A2987 RMK A01 T03180190  RH  047%=      5-min Rain = 0
KMC1 231957Z 17013G20KT 32/19 A2987 RMK A01 T03220191  RH  046%=      5-min Rain = 0
KMC1 231958Z 18016KT 32/19 A2987 RMK A01 T03230190  RH  045%=      5-min Rain = 0
KMC1 231959Z 16016G23KT 32/19 A2987 RMK A01 T03220188  RH  045%=      5-min Rain = 0
KMC1 232000Z 16013G21KT 32/19 A2987 RMK A01 T03220186  RH  044%=      5-min Rain = 0
KMC1 232001Z 16015G20KT 32/18 A2987 RMK A01 T03200183  RH  044%=      5-min Rain = 0
KMC1 232002Z 16009G17KT 32/18 A2987 RMK A01 T03160183  RH  045%=      5-min Rain = 0
KMC1 232003Z 15010G17KT 31/18 A2987 RMK A01 T03140183  RH  046%=      5-min Rain = 0
KMC1 232004Z 15013G19KT 31/18 A2987 RMK A01 T03140184  RH  046%=      5-min Rain = 0
KMC1 232005Z 15010KT 32/19 A2987 RMK A01 T03150185  RH  046%=      5-min Rain = 0
KMC1 232006Z 15010KT 32/19 A2987 RMK A01 T03170188  RH  046%=      5-min Rain = 0
KMC1 232007Z 17013G21KT 32/19 A2986 RMK A01 T03190187  RH  046%=      5-min Rain = 0
KMC1 232008Z 17014G23KT 32/19 A2986 RMK A01 T03200188  RH  046%=      5-min Rain = 0
KMC1 232009Z 17013KT 32/19 A2986 RMK A01 T03200190  RH  046%=      5-min Rain = 0
KMC1 232010Z 16012G18KT 32/19 A2986 RMK A01 T03220192  RH  046%=      5-min Rain = 0
KMC1 232011Z 16009G16KT 32/19 A2986 RMK A01 T03230192  RH  046%=      5-min Rain = 0
KMC1 232012Z 15014G20KT 33/19 A2986 RMK A01 T03250192  RH  045%=      5-min Rain = 0
KMC1 232013Z 14013G18KT 32/19 A2986 RMK A01 T03230189  RH  045%=      5-min Rain = 0
KMC1 232014Z 14015G20KT 32/19 A2986 RMK A01 T03210189  RH  046%=      5-min Rain = 0
KMC1 232015Z 15014G19KT 32/19 A2986 RMK A01 T03200187  RH  045%=      5-min Rain = 0
KMC1 232016Z 14012G17KT 32/19 A2986 RMK A01 T03190188  RH  046%=      5-min Rain = 0
KMC1 232017Z 14011KT 32/19 A2986 RMK A01 T03210189  RH  046%=      5-min Rain = 0
KMC1 232018Z 14009KT 32/19 A2986 RMK A01 T03220190  RH  046%=      5-min Rain = 0
KMC1 232019Z 13014KT 32/19 A2986 RMK A01 T03210190  RH  046%=      5-min Rain = 0
KMC1 232020Z 14014G22KT 32/19 A2986 RMK A01 T03180191  RH  047%=      5-min Rain = 0
KMC1 232021Z 14011G18KT 32/19 A2986 RMK A01 T03180191  RH  047%=      5-min Rain = 0
KMC1 232022Z 15013G18KT 32/19 A2986 RMK A01 T03180190  RH  047%=      5-min Rain = 0
KMC1 232023Z 14012G17KT 32/19 A2986 RMK A01 T03160189  RH  047%=      5-min Rain = 0
KMC1 232024Z 14013G21KT 32/19 A2986 RMK A01 T03150187  RH  047%=      5-min Rain = 0
KMC1 232025Z 16014KT 32/19 A2986 RMK A01 T03150187  RH  047%=      5-min Rain = 0
KMC1 232026Z 15010G16KT 32/19 A2986 RMK A01 T03160188  RH  047%=      5-min Rain = 0
KMC1 232027Z 13014KT 32/19 A2986 RMK A01 T03180189  RH  046%=      5-min Rain = 0
KMC1 232028Z 14012KT 32/19 A2986 RMK A01 T03190189  RH  046%=      5-min Rain = 0
KMC1 232029Z 14008G13KT 32/19 A2986 RMK A01 T03170189  RH  046%=      5-min Rain = 0
KMC1 232030Z 15007KT 32/19 A2986 RMK A01 T03170189  RH  047%=      5-min Rain = 0
KMC1 232031Z 14014G20KT 32/19 A2986 RMK A01 T03170186  RH  046%=      5-min Rain = 0
KMC1 232032Z 14013G18KT 32/18 A2986 RMK A01 T03160184  RH  045%=      5-min Rain = 0
KMC1 232033Z 15010KT 31/18 A2986 RMK A01 T03140184  RH  046%=      5-min Rain = 0
KMC1 232034Z 15008KT 31/19 A2985 RMK A01 T03120187  RH  047%=      5-min Rain = 0
KMC1 232035Z 15007KT 31/19 A2985 RMK A01 T03130190  RH  048%=      5-min Rain = 0
KMC1 232036Z 16015G22KT 32/19 A2985 RMK A01 T03180191  RH  047%=      5-min Rain = 0
KMC1 232037Z 16014G21KT 32/19 A2985 RMK A01 T03200187  RH  045%=      5-min Rain = 0
KMC1 232038Z 17014G20KT 32/19 A2985 RMK A01 T03210185  RH  044%=      5-min Rain = 0
KMC1 232039Z 14005KT 32/19 A2985 RMK A01 T03210188  RH  045%=      5-min Rain = 0
KMC1 232040Z 15006KT 32/19 A2985 RMK A01 T03220190  RH  046%=      5-min Rain = 0
KMC1 232041Z 15009KT 33/19 A2985 RMK A01 T03260192  RH  045%=      5-min Rain = 0
KMC1 232042Z 15009G18KT 33/19 A2985 RMK A01 T03270188  RH  044%=      5-min Rain = 0
KMC1 232043Z 14016G23KT 32/19 A2985 RMK A01 T03240185  RH  044%=      5-min Rain = 0
KMC1 232044Z 13010KT 32/18 A2985 RMK A01 T03200184  RH  044%=      5-min Rain = 0
KMC1 232045Z 13010G15KT 32/19 A2985 RMK A01 T03210188  RH  045%=      5-min Rain = 0
KMC1 232046Z 14014G20KT 33/19 A2984 RMK A01 T03250185  RH  044%=      5-min Rain = 0
KMC1 232047Z 13011G16KT 33/19 A2984 RMK A01 T03250187  RH  044%=      5-min Rain = 0
KMC1 232048Z 14007G12KT 33/19 A2984 RMK A01 T03260189  RH  044%=      5-min Rain = 0
KMC1 232049Z 15011G16KT 33/19 A2984 RMK A01 T03280188  RH  043%=      5-min Rain = 0
KMC1 232050Z 16014G21KT 33/19 A2984 RMK A01 T03270189  RH  044%=      5-min Rain = 0
KMC1 232051Z 15015G20KT 33/19 A2984 RMK A01 T03270187  RH  043%=      5-min Rain = 0
KMC1 232052Z 15014KT 33/19 A2984 RMK A01 T03270187  RH  043%=      5-min Rain = 0
KMC1 232053Z 15009KT 33/19 A2984 RMK A01 T03260188  RH  044%=      5-min Rain = 0
KMC1 232054Z 14008G13KT 33/19 A2984 RMK A01 T03260185  RH  043%=      5-min Rain = 0
KMC1 232055Z 15006KT 32/19 A2984 RMK A01 T03240186  RH  044%=      5-min Rain = 0
KMC1 232056Z 14009KT 32/18 A2984 RMK A01 T03240183  RH  043%=      5-min Rain = 0
KMC1 232057Z 15008KT 33/18 A2984 RMK A01 T03250182  RH  043%=      5-min Rain = 0
KMC1 232058Z 16012KT 33/18 A2984 RMK A01 T03270182  RH  042%=      5-min Rain = 0
KMC1 232059Z 18013G19KT 33/18 A2983 RMK A01 T03270180  RH  042%=      5-min Rain = 0
KMC1 232100Z 17012G17KT 33/18 A2983 RMK A01 T03260182  RH  043%=      5-min Rain = 0
KMC1 232101Z 16013KT 33/18 A2983 RMK A01 T03260183  RH  043%=      5-min Rain = 0
KMC1 232102Z 17008KT 32/18 A2983 RMK A01 T03240184  RH  044%=      5-min Rain = 0
KMC1 232103Z 16013KT 33/19 A2983 RMK A01 T03270188  RH  044%=      5-min Rain = 0
KMC1 232104Z 15013KT 33/19 A2983 RMK A01 T03290186  RH  043%=      5-min Rain = 0
KMC1 232105Z 13014G21KT 33/19 A2983 RMK A01 T03270188  RH  044%=      5-min Rain = 0
KMC1 232106Z 12015G20KT 33/19 A2983 RMK A01 T03270186  RH  043%=      5-min Rain = 0
KMC1 232107Z 12018KT 32/19 A2983 RMK A01 T03240185  RH  044%=      5-min Rain = 0
KMC1 232108Z 13013G18KT 32/18 A2983 RMK A01 T03200184  RH  044%=      5-min Rain = 0
KMC1 232109Z 12013G19KT 32/19 A2983 RMK A01 T03200186  RH  045%=      5-min Rain = 0
KMC1 232110Z 11015G20KT 32/19 A2982 RMK A01 T03200186  RH  045%=      5-min Rain = 0
KMC1 232111Z 13011KT 32/19 A2983 RMK A01 T03190187  RH  045%=      5-min Rain = 0
KMC1 232112Z 12011KT 32/19 A2982 RMK A01 T03190186  RH  045%=      5-min Rain = 0
KMC1 232113Z 11009KT 32/19 A2982 RMK A01 T03190189  RH  046%=      5-min Rain = 0
KMC1 232114Z 13011G16KT 32/19 A2982 RMK A01 T03220189  RH  045%=      5-min Rain = 0
KMC1 232115Z 13014KT 32/19 A2982 RMK A01 T03240187  RH  044%=      5-min Rain = 0
KMC1 232116Z 13011KT 32/19 A2982 RMK A01 T03240187  RH  044%=      5-min Rain = 0
KMC1 232117Z 13010KT 32/19 A2982 RMK A01 T03240186  RH  044%=      5-min Rain = 0
KMC1 232118Z 13013G20KT 33/19 A2982 RMK A01 T03250186  RH  044%=      5-min Rain = 0
KMC1 232119Z 14011G16KT 33/19 A2982 RMK A01 T03280187  RH  043%=      5-min Rain = 0
KMC1 232120Z 13010KT 33/19 A2982 RMK A01 T03290187  RH  043%=      5-min Rain = 0
KMC1 232121Z 14011G16KT 33/19 A2982 RMK A01 T03280187  RH  043%=      5-min Rain = 0
KMC1 232122Z 14013G18KT 33/19 A2982 RMK A01 T03290186  RH  043%=      5-min Rain = 0
KMC1 232123Z 16009G15KT 33/19 A2982 RMK A01 T03270185  RH  043%=      5-min Rain = 0
KMC1 232124Z 17013G19KT 33/18 A2982 RMK A01 T03280183  RH  042%=      5-min Rain = 0
KMC1 232125Z 16015G21KT 33/18 A2982 RMK A01 T03290181  RH  041%=      5-min Rain = 0
KMC1 232126Z 17010G15KT 33/18 A2982 RMK A01 T03290182  RH  042%=      5-min Rain = 0
KMC1 232127Z 16007G12KT 33/18 A2982 RMK A01 T03280181  RH  042%=      5-min Rain = 0
KMC1 232128Z 14009KT 33/18 A2982 RMK A01 T03300182  RH  041%=      5-min Rain = 0
KMC1 232129Z 12009KT 33/18 A2982 RMK A01 T03290183  RH  042%=      5-min Rain = 0
KMC1 232130Z 12009G19KT 33/19 A2982 RMK A01 T03280186  RH  043%=      5-min Rain = 0
KMC1 232131Z 11015G20KT 33/18 A2982 RMK A01 T03260181  RH  042%=      5-min Rain = 0
KMC1 232132Z 15011G17KT 32/18 A2982 RMK A01 T03230184  RH  044%=      5-min Rain = 0
KMC1 232133Z 14013G18KT 32/18 A2982 RMK A01 T03230184  RH  044%=      5-min Rain = 0
KMC1 232134Z 14013G20KT 32/18 A2982 RMK A01 T03220183  RH  044%=      5-min Rain = 0
KMC1 232135Z 14011G18KT 32/18 A2982 RMK A01 T03180183  RH  045%=      5-min Rain = 0
KMC1 232136Z 14011G16KT 32/18 A2982 RMK A01 T03150182  RH  045%=      5-min Rain = 0
KMC1 232137Z 13010KT 32/18 A2982 RMK A01 T03150184  RH  046%=      5-min Rain = 0
KMC1 232138Z 14008KT 32/19 A2982 RMK A01 T03150185  RH  046%=      5-min Rain = 0
KMC1 232139Z 15007G12KT 32/19 A2982 RMK A01 T03170188  RH  046%=      5-min Rain = 0
KMC1 232140Z 16009G15KT 32/19 A2982 RMK A01 T03220188  RH  045%=      5-min Rain = 0
KMC1 232141Z 15011KT 33/19 A2983 RMK A01 T03250187  RH  044%=      5-min Rain = 0
KMC1 232142Z 15009KT 33/19 A2983 RMK A01 T03270186  RH  043%=      5-min Rain = 0
KMC1 232143Z 16010G15KT 33/18 A2983 RMK A01 T03290184  RH  042%=      5-min Rain = 0
KMC1 232144Z 16013G20KT 33/18 A2983 RMK A01 T03290184  RH  042%=      5-min Rain = 0
KMC1 232145Z 15009G16KT 33/18 A2983 RMK A01 T03300182  RH  042%=      5-min Rain = 0
KMC1 232146Z 17011KT 33/18 A2983 RMK A01 T03290183  RH  042%=      5-min Rain = 0
KMC1 232147Z 18011KT 33/19 A2983 RMK A01 T03280185  RH  043%=      5-min Rain = 0
KMC1 232148Z 19011KT 33/19 A2982 RMK A01 T03280185  RH  043%=      5-min Rain = 0
KMC1 232149Z 18008G13KT 33/18 A2982 RMK A01 T03270184  RH  043%=      5-min Rain = 0
KMC1 232150Z 16007G16KT 33/19 A2982 RMK A01 T03270188  RH  044%=      5-min Rain = 0
KMC1 232151Z 16014KT 33/19 A2982 RMK A01 T03290185  RH  043%=      5-min Rain = 0
KMC1 232152Z 14013G18KT 33/19 A2982 RMK A01 T03270185  RH  043%=      5-min Rain = 0
KMC1 232153Z 13009G14KT 33/18 A2982 RMK A01 T03260184  RH  043%=      5-min Rain = 0
KMC1 232154Z 15009G14KT 33/18 A2982 RMK A01 T03260184  RH  043%=      5-min Rain = 0
KMC1 232155Z 15010G15KT 33/19 A2982 RMK A01 T03260185  RH  043%=      5-min Rain = 0
KMC1 232156Z 14012G17KT 33/19 A2982 RMK A01 T03270185  RH  043%=      5-min Rain = 0
KMC1 232157Z 16011G17KT 33/18 A2982 RMK A01 T03250182  RH  043%=      5-min Rain = 0
KMC1 232158Z 14010G16KT 32/18 A2982 RMK A01 T03240184  RH  043%=      5-min Rain = 0
KMC1 232159Z 13012G17KT 32/19 A2981 RMK A01 T03230185  RH  044%=      5-min Rain = 0
KMC1 232200Z 14012KT 32/18 A2982 RMK A01 T03240183  RH  043%=      5-min Rain = 0
KMC1 232201Z 15009KT 32/18 A2982 RMK A01 T03240184  RH  043%=      5-min Rain = 0
KMC1 232202Z 15007KT 32/18 A2982 RMK A01 T03230184  RH  044%=      5-min Rain = 0
KMC1 232203Z 16008G14KT 32/19 A2982 RMK A01 T03240185  RH  044%=      5-min Rain = 0
KMC1 232204Z 15009G14KT 33/19 A2982 RMK A01 T03250185  RH  044%=      5-min Rain = 0
KMC1 232205Z 16012G18KT 33/18 A2982 RMK A01 T03250184  RH  043%=      5-min Rain = 0
KMC1 232206Z 15008G13KT 32/18 A2982 RMK A01 T03230184  RH  044%=      5-min Rain = 0
KMC1 232207Z 16011G16KT 32/18 A2982 RMK A01 T03220182  RH  043%=      5-min Rain = 0
KMC1 232208Z 15010KT 32/18 A2982 RMK A01 T03190182  RH  044%=      5-min Rain = 0
KMC1 232209Z 15011KT 32/18 A2982 RMK A01 T03180183  RH  045%=      5-min Rain = 0
KMC1 232210Z 16011KT 32/18 A2982 RMK A01 T03170182  RH  045%=      5-min Rain = 0
KMC1 232211Z 17014KT 32/18 A2982 RMK A01 T03150181  RH  045%=      5-min Rain = 0
KMC1 232212Z 15009KT 31/18 A2982 RMK A01 T03130181  RH  045%=      5-min Rain = 0
KMC1 232213Z 13007KT 31/18 A2982 RMK A01 T03130182  RH  046%=      5-min Rain = 0
KMC1 232214Z 14005KT 31/18 A2982 RMK A01 T03140182  RH  045%=      5-min Rain = 0
KMC1 232215Z 17005KT 31/18 A2982 RMK A01 T03140182  RH  045%=      5-min Rain = 0
KMC1 232216Z 17008KT 32/18 A2982 RMK A01 T03150181  RH  045%=      5-min Rain = 0
KMC1 232217Z 17010KT 32/18 A2982 RMK A01 T03150183  RH  045%=      5-min Rain = 0
KMC1 232218Z 17009KT 32/18 A2982 RMK A01 T03160181  RH  045%=      5-min Rain = 0
KMC1 232219Z 16012KT 32/18 A2982 RMK A01 T03150182  RH  045%=      5-min Rain = 0
KMC1 232220Z 15010G17KT 31/18 A2982 RMK A01 T03140181  RH  045%=      5-min Rain = 0
KMC1 232221Z 16009KT 31/18 A2982 RMK A01 T03140182  RH  045%=      5-min Rain = 0
KMC1 232222Z 16009G14KT 31/18 A2982 RMK A01 T03140181  RH  045%=      5-min Rain = 0
KMC1 232223Z 15011KT 31/18 A2982 RMK A01 T03130182  RH  046%=      5-min Rain = 0
KMC1 232224Z 16006KT 31/18 A2982 RMK A01 T03130181  RH  046%=      5-min Rain = 0
KMC1 232225Z 17011G16KT 31/18 A2982 RMK A01 T03130183  RH  046%=      5-min Rain = 0
KMC1 232226Z 17011KT 31/18 A2982 RMK A01 T03130181  RH  046%=      5-min Rain = 0
KMC1 232227Z 16012G18KT 31/18 A2982 RMK A01 T03120181  RH  046%=      5-min Rain = 0
KMC1 232228Z 16010G15KT 31/18 A2982 RMK A01 T03120180  RH  046%=      5-min Rain = 0
KMC1 232229Z 15007KT 31/18 A2982 RMK A01 T03110181  RH  046%=      5-min Rain = 0
KMC1 232230Z 15011KT 31/18 A2982 RMK A01 T03110183  RH  046%=      5-min Rain = 0
KMC1 232231Z 15012KT 31/18 A2982 RMK A01 T03120181  RH  046%=      5-min Rain = 0
KMC1 232232Z 15009KT 31/18 A2982 RMK A01 T03120182  RH  046%=      5-min Rain = 0
KMC1 232233Z 15010KT 31/18 A2982 RMK A01 T03120183  RH  046%=      5-min Rain = 0
KMC1 232234Z 15011KT 31/18 A2982 RMK A01 T03120183  RH  046%=      5-min Rain = 0
KMC1 232235Z 15011G16KT 31/18 A2982 RMK A01 T03110181  RH  046%=      5-min Rain = 0
KMC1 232236Z 14011KT 31/18 A2981 RMK A01 T03110180  RH  046%=      5-min Rain = 0
KMC1 232237Z 15011G17KT 31/18 A2981 RMK A01 T03100181  RH  046%=      5-min Rain = 0
KMC1 232238Z 14012KT 31/18 A2981 RMK A01 T03100181  RH  046%=      5-min Rain = 0
KMC1 232239Z 16009G14KT 31/18 A2981 RMK A01 T03090181  RH  046%=      5-min Rain = 0
KMC1 232240Z 16011KT 31/18 A2981 RMK A01 T03090180  RH  046%=      5-min Rain = 0
KMC1 232241Z 14011KT 31/18 A2981 RMK A01 T03090180  RH  046%=      5-min Rain = 0
KMC1 232242Z 16008KT 31/18 A2982 RMK A01 T03090180  RH  046%=      5-min Rain = 0
KMC1 232243Z 15008KT 31/18 A2982 RMK A01 T03100182  RH  046%=      5-min Rain = 0
KMC1 232244Z 15008KT 31/18 A2982 RMK A01 T03100181  RH  046%=      5-min Rain = 0
KMC1 232245Z 16007G12KT 31/18 A2982 RMK A01 T03100182  RH  046%=      5-min Rain = 0
KMC1 232246Z 14010G16KT 31/18 A2982 RMK A01 T03110183  RH  047%=      5-min Rain = 0
KMC1 232247Z 15010G17KT 31/18 A2982 RMK A01 T03110183  RH  047%=      5-min Rain = 0
KMC1 232248Z 16012G19KT 31/18 A2982 RMK A01 T03100183  RH  047%=      5-min Rain = 0
KMC1 232249Z 16012KT 31/18 A2982 RMK A01 T03100179  RH  046%=      5-min Rain = 0
KMC1 232250Z 15012KT 31/18 A2982 RMK A01 T03080179  RH  046%=      5-min Rain = 0
KMC1 232251Z 15010KT 31/18 A2982 RMK A01 T03080180  RH  046%=      5-min Rain = 0
KMC1 232252Z 15012G17KT 31/18 A2982 RMK A01 T03080179  RH  046%=      5-min Rain = 0
KMC1 232253Z 16012KT 31/18 A2982 RMK A01 T03070178  RH  046%=      5-min Rain = 0
KMC1 232254Z 17012KT 31/18 A2983 RMK A01 T03060178  RH  046%=      5-min Rain = 0
KMC1 232255Z 16011G16KT 31/18 A2983 RMK A01 T03060179  RH  047%=      5-min Rain = 0
KMC1 232256Z 15007KT 31/18 A2983 RMK A01 T03060180  RH  047%=      5-min Rain = 0
KMC1 232257Z 15012G19KT 31/18 A2983 RMK A01 T03060180  RH  047%=      5-min Rain = 0
KMC1 232258Z 14011G16KT 31/18 A2983 RMK A01 T03060179  RH  047%=      5-min Rain = 0
KMC1 232259Z 15010G17KT 31/18 A2983 RMK A01 T03060180  RH  047%=      5-min Rain = 0
KMC1 232300Z 15009G14KT 31/18 A2983 RMK A01 T03060180  RH  047%=      5-min Rain = 0
KMC1 232301Z 15012G18KT 31/18 A2982 RMK A01 T03060180  RH  047%=      5-min Rain = 0
KMC1 232302Z 16014G19KT 31/18 A2982 RMK A01 T03060180  RH  047%=      5-min Rain = 0
KMC1 232303Z 16011G18KT 31/18 A2982 RMK A01 T03050180  RH  047%=      5-min Rain = 0
KMC1 232304Z 16014KT 31/18 A2982 RMK A01 T03050181  RH  048%=      5-min Rain = 0
KMC1 232305Z 16015KT 30/18 A2982 RMK A01 T03040180  RH  047%=      5-min Rain = 0
KMC1 232306Z 16014G20KT 30/18 A2982 RMK A01 T03040181  RH  048%=      5-min Rain = 0
KMC1 232307Z 16014KT 30/18 A2982 RMK A01 T03040181  RH  048%=      5-min Rain = 0
KMC1 232308Z 17011KT 30/18 A2982 RMK A01 T03030180  RH  048%=      5-min Rain = 0
KMC1 232309Z 16009G15KT 30/18 A2982 RMK A01 T03030181  RH  048%=      5-min Rain = 0
KMC1 232310Z 17010KT 30/18 A2982 RMK A01 T03030181  RH  048%=      5-min Rain = 0
KMC1 232311Z 16011G16KT 30/18 A2981 RMK A01 T03030181  RH  048%=      5-min Rain = 0
KMC1 232312Z 17010G17KT 30/18 A2981 RMK A01 T03030182  RH  048%=      5-min Rain = 0
KMC1 232313Z 16012KT 30/18 A2981 RMK A01 T03030181  RH  048%=      5-min Rain = 0
KMC1 232314Z 17011G16KT 30/18 A2981 RMK A01 T03030181  RH  048%=      5-min Rain = 0
KMC1 232315Z 17014KT 30/18 A2981 RMK A01 T03030181  RH  048%=      5-min Rain = 0
KMC1 232316Z 16008G13KT 30/18 A2981 RMK A01 T03020182  RH  048%=      5-min Rain = 0
KMC1 232317Z 17012KT 30/18 A2981 RMK A01 T03020182  RH  049%=      5-min Rain = 0
KMC1 232318Z 17012KT 30/18 A2981 RMK A01 T03020181  RH  048%=      5-min Rain = 0
KMC1 232319Z 16012KT 30/18 A2981 RMK A01 T03020182  RH  049%=      5-min Rain = 0
KMC1 232320Z 17010KT 30/18 A2981 RMK A01 T03020183  RH  049%=      5-min Rain = 0
KMC1 232321Z 17012G19KT 30/18 A2981 RMK A01 T03020183  RH  049%=      5-min Rain = 0
KMC1 232322Z 16012G17KT 30/18 A2982 RMK A01 T03020183  RH  049%=      5-min Rain = 0
KMC1 232323Z 16011G17KT 30/18 A2982 RMK A01 T03020182  RH  049%=      5-min Rain = 0
KMC1 232324Z 16011G17KT 30/18 A2982 RMK A01 T03010182  RH  049%=      5-min Rain = 0
KMC1 232325Z 15011G17KT 30/18 A2982 RMK A01 T03010181  RH  049%=      5-min Rain = 0
KMC1 232326Z 16009G15KT 30/18 A2982 RMK A01 T03000181  RH  049%=      5-min Rain = 0
KMC1 232327Z 17011KT 30/18 A2982 RMK A01 T03000182  RH  049%=      5-min Rain = 0
KMC1 232328Z 17013G18KT 30/18 A2982 RMK A01 T03000182  RH  049%=      5-min Rain = 0
KMC1 232329Z 18012KT 30/18 A2982 RMK A01 T02990182  RH  049%=      5-min Rain = 0
KMC1 232330Z 17012G20KT 30/18 A2982 RMK A01 T02990183  RH  050%=      5-min Rain = 0
KMC1 232331Z 16017KT 30/18 A2982 RMK A01 T02990182  RH  050%=      5-min Rain = 0
KMC1 232332Z 15011G17KT 30/18 A2982 RMK A01 T02990182  RH  050%=      5-min Rain = 0
KMC1 232333Z 15010G15KT 30/18 A2982 RMK A01 T02990183  RH  050%=      5-min Rain = 0
KMC1 232334Z 15008G14KT 30/18 A2982 RMK A01 T02990184  RH  050%=      5-min Rain = 0
KMC1 232335Z 16008G13KT 30/18 A2982 RMK A01 T02990184  RH  050%=      5-min Rain = 0
KMC1 232336Z 16010G16KT 30/18 A2982 RMK A01 T02990182  RH  050%=      5-min Rain = 0
KMC1 232337Z 17010KT 30/18 A2982 RMK A01 T02980183  RH  050%=      5-min Rain = 0
KMC1 232338Z 17012KT 30/18 A2982 RMK A01 T02980182  RH  050%=      5-min Rain = 0
KMC1 232339Z 16008KT 30/18 A2982 RMK A01 T02980182  RH  050%=      5-min Rain = 0
KMC1 232340Z 16011G19KT 30/18 A2982 RMK A01 T02970182  RH  050%=      5-min Rain = 0
KMC1 232341Z 16009KT 30/18 A2982 RMK A01 T02970182  RH  050%=      5-min Rain = 0
KMC1 232342Z 16010KT 30/18 A2982 RMK A01 T02970181  RH  050%=      5-min Rain = 0
KMC1 232343Z 16011G16KT 30/18 A2982 RMK A01 T02970181  RH  050%=      5-min Rain = 0
KMC1 232344Z 15009KT 30/18 A2982 RMK A01 T02960181  RH  050%=      5-min Rain = 0
KMC1 232345Z 16009KT 30/18 A2982 RMK A01 T02960182  RH  050%=      5-min Rain = 0
KMC1 232346Z 16008KT 30/18 A2982 RMK A01 T02960182  RH  050%=      5-min Rain = 0
KMC1 232347Z 17009KT 30/18 A2982 RMK A01 T02950182  RH  050%=      5-min Rain = 0
KMC1 232348Z 16006KT 30/18 A2982 RMK A01 T02960183  RH  051%=      5-min Rain = 0
KMC1 232349Z 15006KT 30/18 A2982 RMK A01 T02950183  RH  051%=      5-min Rain = 0
KMC1 232350Z 17007G13KT 30/18 A2982 RMK A01 T02950183  RH  051%=      5-min Rain = 0
KMC1 232351Z 15012G17KT 30/18 A2982 RMK A01 T02950183  RH  051%=      5-min Rain = 0
KMC1 232352Z 17011KT 29/18 A2982 RMK A01 T02940183  RH  051%=      5-min Rain = 0
KMC1 232353Z 17011KT 29/18 A2982 RMK A01 T02940183  RH  051%=      5-min Rain = 0
KMC1 232354Z 17012KT 29/18 A2982 RMK A01 T02930182  RH  051%=      5-min Rain = 0
KMC1 232355Z 16009G14KT 29/18 A2982 RMK A01 T02930183  RH  051%=      5-min Rain = 0
KMC1 232356Z 16010KT 29/18 A2982 RMK A01 T02930183  RH  051%=      5-min Rain = 0
KMC1 232357Z 16008KT 29/18 A2982 RMK A01 T02920182  RH  052%=      5-min Rain = 0
KMC1 232358Z 16012G18KT 29/18 A2982 RMK A01 T02920183  RH  052%=      5-min Rain = 0
KMC1 232359Z 16009KT 29/18 A2982 RMK A01 T02920183  RH  052%=      5-min Rain = 0
KMC1 240000Z 15008KT 29/18 A2982 RMK A01 T02920183  RH  052%=      5-min Rain = 0
KMC1 240001Z 16010G16KT 29/18 A2982 RMK A01 T02920183  RH  052%=      5-min Rain = 0
KMC1 240002Z 15007KT 29/18 A2982 RMK A01 T02910182  RH  052%=      5-min Rain = 0
KMC1 240003Z 14008G14KT 29/18 A2982 RMK A01 T02910183  RH  052%=      5-min Rain = 0
KMC1 240004Z 16009G14KT 29/18 A2982 RMK A01 T02910183  RH  052%=      5-min Rain = 0
KMC1 240005Z 14006KT 29/18 A2982 RMK A01 T02910183  RH  052%=      5-min Rain = 0
KMC1 240006Z 16008KT 29/18 A2982 RMK A01 T02900183  RH  052%=      5-min Rain = 0
KMC1 240007Z 15010KT 29/18 A2982 RMK A01 T02900183  RH  052%=      5-min Rain = 0
KMC1 240008Z 15010KT 29/18 A2982 RMK A01 T02900183  RH  052%=      5-min Rain = 0
KMC1 240009Z 15010KT 29/18 A2982 RMK A01 T02900183  RH  053%=      5-min Rain = 0
KMC1 240010Z 16010KT 29/18 A2982 RMK A01 T02900183  RH  052%=      5-min Rain = 0
KMC1 240011Z 14009G15KT 29/18 A2981 RMK A01 T02890183  RH  053%=      5-min Rain = 0
KMC1 240012Z 14008KT 29/18 A2981 RMK A01 T02890183  RH  053%=      5-min Rain = 0
KMC1 240013Z 15009G16KT 29/18 A2981 RMK A01 T02890183  RH  053%=      5-min Rain = 0
KMC1 240014Z 16010G17KT 29/18 A2981 RMK A01 T02890183  RH  053%=      5-min Rain = 0
KMC1 240015Z 15009KT 29/18 A2981 RMK A01 T02890183  RH  053%=      5-min Rain = 0
KMC1 240016Z 15005KT 29/18 A2982 RMK A01 T02890183  RH  053%=      5-min Rain = 0
KMC1 240017Z 15009G14KT 29/18 A2982 RMK A01 T02880183  RH  053%=      5-min Rain = 0
KMC1 240018Z 14009G15KT 29/18 A2982 RMK A01 T02880183  RH  053%=      5-min Rain = 0
KMC1 240019Z 15008KT 29/18 A2982 RMK A01 T02880183  RH  053%=      5-min Rain = 0
KMC1 240020Z 16008KT 29/18 A2982 RMK A01 T02880183  RH  053%=      5-min Rain = 0
KMC1 240021Z 15009KT 29/18 A2982 RMK A01 T02880183  RH  053%=      5-min Rain = 0
KMC1 240022Z 15010G17KT 29/18 A2982 RMK A01 T02880183  RH  053%=      5-min Rain = 0
KMC1 240023Z 15011KT 29/18 A2982 RMK A01 T02870182  RH  053%=      5-min Rain = 0
KMC1 240024Z 15011G16KT 29/18 A2982 RMK A01 T02870182  RH  053%=      5-min Rain = 0
KMC1 240025Z 15010KT 29/18 A2982 RMK A01 T02870182  RH  053%=      5-min Rain = 0
KMC1 240026Z 15009KT 29/18 A2982 RMK A01 T02870183  RH  053%=      5-min Rain = 0
KMC1 240027Z 15010G16KT 29/18 A2982 RMK A01 T02870183  RH  053%=      5-min Rain = 0
KMC1 240028Z 15010G16KT 29/18 A2982 RMK A01 T02870182  RH  053%=      5-min Rain = 0
KMC1 240029Z 15008KT 29/18 A2982 RMK A01 T02870183  RH  053%=      5-min Rain = 0
KMC1 240030Z 15009G16KT 29/18 A2982 RMK A01 T02860183  RH  053%=      5-min Rain = 0
KMC1 240031Z 16009G14KT 29/18 A2982 RMK A01 T02870183  RH  053%=      5-min Rain = 0
KMC1 240032Z 16012G17KT 29/18 A2982 RMK A01 T02870183  RH  053%=      5-min Rain = 0
KMC1 240033Z 16008KT 29/18 A2982 RMK A01 T02860182  RH  053%=      5-min Rain = 0
KMC1 240034Z 15009G14KT 29/18 A2982 RMK A01 T02860183  RH  054%=      5-min Rain = 0
KMC1 240035Z 15011G16KT 29/18 A2982 RMK A01 T02860183  RH  054%=      5-min Rain = 0
KMC1 240036Z 15011G16KT 29/18 A2982 RMK A01 T02860183  RH  054%=      5-min Rain = 0
KMC1 240037Z 14012KT 29/18 A2982 RMK A01 T02850182  RH  054%=      5-min Rain = 0
KMC1 240038Z 15010G15KT 29/18 A2982 RMK A01 T02860183  RH  054%=      5-min Rain = 0
KMC1 240039Z 15010G15KT 29/18 A2982 RMK A01 T02850183  RH  054%=      5-min Rain = 0
KMC1 240040Z 14010KT 29/18 A2982 RMK A01 T02860183  RH  054%=      5-min Rain = 0
KMC1 240041Z 14009G14KT 29/18 A2982 RMK A01 T02850183  RH  054%=      5-min Rain = 0
KMC1 240042Z 15010KT 29/18 A2982 RMK A01 T02850183  RH  054%=      5-min Rain = 0
KMC1 240043Z 14008KT 29/18 A2982 RMK A01 T02850183  RH  054%=      5-min Rain = 0
KMC1 240044Z 15011KT 28/18 A2982 RMK A01 T02840183  RH  054%=      5-min Rain = 0
KMC1 240045Z 14011G17KT 28/18 A2982 RMK A01 T02840183  RH  054%=      5-min Rain = 0
KMC1 240046Z 14013G18KT 28/18 A2982 RMK A01 T02840183  RH  054%=      5-min Rain = 0
KMC1 240047Z 15010KT 28/18 A2982 RMK A01 T02840183  RH  054%=      5-min Rain = 0
KMC1 240048Z 14012G17KT 28/18 A2982 RMK A01 T02840183  RH  054%=      5-min Rain = 0
KMC1 240049Z 15011G16KT 28/18 A2982 RMK A01 T02840184  RH  054%=      5-min Rain = 0
KMC1 240050Z 15009G14KT 28/18 A2982 RMK A01 T02840184  RH  054%=      5-min Rain = 0
KMC1 240051Z 14010KT 28/18 A2982 RMK A01 T02840184  RH  055%=      5-min Rain = 0
KMC1 240052Z 13010KT 28/18 A2982 RMK A01 T02840184  RH  055%=      5-min Rain = 0
KMC1 240053Z 14007KT 28/18 A2982 RMK A01 T02840184  RH  055%=      5-min Rain = 0
KMC1 240054Z 15008KT 28/18 A2982 RMK A01 T02830184  RH  055%=      5-min Rain = 0
KMC1 240055Z 15011KT 28/18 A2981 RMK A01 T02830184  RH  055%=      5-min Rain = 0
KMC1 240056Z 14010KT 28/18 A2981 RMK A01 T02830184  RH  055%=      5-min Rain = 0
KMC1 240057Z 15013G19KT 28/18 A2981 RMK A01 T02830184  RH  055%=      5-min Rain = 0
KMC1 240058Z 15012G17KT 28/18 A2981 RMK A01 T02830184  RH  055%=      5-min Rain = 0
KMC1 240059Z 14009KT 28/19 A2981 RMK A01 T02830185  RH  055%=      5-min Rain = 0
KMC1 240100Z 15011G17KT 28/19 A2981 RMK A01 T02830185  RH  055%=      5-min Rain = 0
KMC1 240101Z 15012G21KT 28/19 A2981 RMK A01 T02830185  RH  055%=      5-min Rain = 0
KMC1 240102Z 14010G16KT 28/18 A2981 RMK A01 T02830184  RH  055%=      5-min Rain = 0
KMC1 240103Z 15012G18KT 28/19 A2982 RMK A01 T02830185  RH  055%=      5-min Rain = 0
KMC1 240104Z 15011KT 28/19 A2982 RMK A01 T02830185  RH  055%=      5-min Rain = 0
KMC1 240105Z 15010G16KT 28/19 A2982 RMK A01 T02830185  RH  055%=      5-min Rain = 0
KMC1 240106Z 16011G20KT 28/19 A2982 RMK A01 T02830185  RH  055%=      5-min Rain = 0
KMC1 240107Z 15011KT 28/19 A2982 RMK A01 T02830185  RH  055%=      5-min Rain = 0
KMC1 240108Z 15013G23KT 28/19 A2983 RMK A01 T02830185  RH  055%=      5-min Rain = 0
KMC1 240109Z 16009G14KT 28/19 A2983 RMK A01 T02830185  RH  055%=      5-min Rain = 0
KMC1 240110Z 16011G19KT 28/19 A2983 RMK A01 T02830185  RH  056%=      5-min Rain = 0
KMC1 240111Z 16015G21KT 28/19 A2983 RMK A01 T02830186  RH  056%=      5-min Rain = 0
KMC1 240112Z 16012G17KT 28/19 A2982 RMK A01 T02830186  RH  056%=      5-min Rain = 0
KMC1 240113Z 16007G12KT 28/19 A2982 RMK A01 T02830186  RH  056%=      5-min Rain = 0
KMC1 240114Z 14010G17KT 28/19 A2982 RMK A01 T02830186  RH  056%=      5-min Rain = 0
KMC1 240115Z 15014G22KT 28/19 A2982 RMK A01 T02820185  RH  056%=      5-min Rain = 0
KMC1 240116Z 16010G15KT 28/18 A2983 RMK A01 T02810184  RH  056%=      5-min Rain = 0
KMC1 240117Z 17013G20KT 28/19 A2983 RMK A01 T02800185  RH  056%=      5-min Rain = 0
KMC1 240118Z 17012G19KT 28/18 A2983 RMK A01 T02790184  RH  056%=      5-min Rain = 0
KMC1 240119Z 17014KT 28/18 A2983 RMK A01 T02780183  RH  056%=      5-min Rain = 0
KMC1 240120Z 18011KT 28/18 A2983 RMK A01 T02760182  RH  057%=      5-min Rain = 0
KMC1 240121Z 18010KT 28/18 A2983 RMK A01 T02750182  RH  057%=      5-min Rain = 0
KMC1 240122Z 18008KT 27/18 A2983 RMK A01 T02730181  RH  057%=      5-min Rain = 0
KMC1 240123Z 19008KT 27/18 A2982 RMK A01 T02720181  RH  058%=      5-min Rain = 0
KMC1 240124Z 20007KT 27/18 A2982 RMK A01 T02710180  RH  057%=      5-min Rain = 0
KMC1 240125Z 19005KT 27/18 A2982 RMK A01 T02700181  RH  058%=      5-min Rain = 0
KMC1 240126Z 19005KT 27/18 A2982 RMK A01 T02690181  RH  058%=      5-min Rain = 0
KMC1 240127Z 15004KT 27/18 A2982 RMK A01 T02690180  RH  058%=      5-min Rain = 0
KMC1 240128Z 16005KT 27/18 A2982 RMK A01 T02680180  RH  058%=      5-min Rain = 0
KMC1 240129Z 16005KT 27/18 A2982 RMK A01 T02670180  RH  059%=      5-min Rain = 0
KMC1 240130Z 17007KT 27/18 A2981 RMK A01 T02670179  RH  059%=      5-min Rain = 0
KMC1 240131Z 14005KT 27/18 A2981 RMK A01 T02660179  RH  059%=      5-min Rain = 0
KMC1 240132Z 14005KT 27/18 A2981 RMK A01 T02650179  RH  059%=      5-min Rain = 0
KMC1 240133Z 14007KT 27/18 A2981 RMK A01 T02650179  RH  059%=      5-min Rain = 0
KMC1 240134Z 12006KT 27/18 A2981 RMK A01 T02650179  RH  059%=      5-min Rain = 0
KMC1 240135Z 11006KT 27/18 A298 RMK A01 T02650179  RH  059%=      5-min Rain = 0
KMC1 240136Z 11006KT 27/18 A298 RMK A01 T02650179  RH  059%=      5-min Rain = 0
KMC1 240137Z 11008KT 27/18 A298 RMK A01 T02650178  RH  059%=      5-min Rain = 0
KMC1 240138Z 11009KT 27/18 A2981 RMK A01 T02660179  RH  059%=      5-min Rain = 0
KMC1 240139Z 11007KT 27/18 A2981 RMK A01 T02660178  RH  059%=      5-min Rain = 0
KMC1 240140Z 11008KT 27/18 A2981 RMK A01 T02660178  RH  058%=      5-min Rain = 0
KMC1 240141Z 11009KT 27/18 A2981 RMK A01 T02670176  RH  058%=      5-min Rain = 0
KMC1 240142Z 10006KT 27/17 A2981 RMK A01 T02680172  RH  056%=      5-min Rain = 0
KMC1 240143Z 10006KT 27/17 A2981 RMK A01 T02690174  RH  056%=      5-min Rain = 0
KMC1 240144Z 11006KT 27/18 A2982 RMK A01 T02690176  RH  057%=      5-min Rain = 0
KMC1 240145Z 11005KT 27/18 A2982 RMK A01 T02700177  RH  057%=      5-min Rain = 0
KMC1 240146Z 11006KT 27/18 A2982 RMK A01 T02690177  RH  057%=      5-min Rain = 0
KMC1 240147Z 11006KT 27/18 A2983 RMK A01 T02690177  RH  057%=      5-min Rain = 0
KMC1 240148Z 09003KT 27/18 A2983 RMK A01 T02690178  RH  057%=      5-min Rain = 0
KMC1 240149Z 11003KT 27/18 A2983 RMK A01 T02690178  RH  057%=      5-min Rain = 0
KMC1 240150Z 13001KT 27/18 A2983 RMK A01 T02690178  RH  057%=      5-min Rain = 0
KMC1 240151Z 28001KT 27/18 A2983 RMK A01 T02690178  RH  058%=      5-min Rain = 0
KMC1 240152Z 27003KT 27/18 A2983 RMK A01 T02680178  RH  058%=      5-min Rain = 0
KMC1 240153Z 28003KT 27/18 A2983 RMK A01 T02680178  RH  058%=      5-min Rain = 0
KMC1 240154Z 28003KT 27/18 A2983 RMK A01 T02670178  RH  058%=      5-min Rain = 0
KMC1 240155Z 28003KT 27/18 A2983 RMK A01 T02670178  RH  058%=      5-min Rain = 0
KMC1 240156Z 28002KT 27/18 A2983 RMK A01 T02660178  RH  058%=      5-min Rain = 0
KMC1 240157Z 29000KT 27/18 A2983 RMK A01 T02660178  RH  058%=      5-min Rain = 0
KMC1 240158Z 29001KT 27/18 A2984 RMK A01 T02650177  RH  058%=      5-min Rain = 0
KMC1 240159Z 30003KT 27/18 A2984 RMK A01 T02650177  RH  058%=      5-min Rain = 0
KMC1 240200Z 28002KT 27/18 A2984 RMK A01 T02650176  RH  058%=      5-min Rain = 0
KMC1 240201Z 29003KT 27/18 A2984 RMK A01 T02650176  RH  058%=      5-min Rain = 0
KMC1 240202Z 31005KT 27/18 A2984 RMK A01 T02650177  RH  058%=      5-min Rain = 0
KMC1 240203Z 31005KT 26/18 A2984 RMK A01 T02640177  RH  058%=      5-min Rain = 0
KMC1 240204Z 29003KT 26/18 A2984 RMK A01 T02640177  RH  059%=      5-min Rain = 0
KMC1 240205Z 28005KT 26/17 A2984 RMK A01 T02640173  RH  057%=      5-min Rain = 0
KMC1 240206Z 30005KT 26/17 A2984 RMK A01 T02640174  RH  058%=      5-min Rain = 0
KMC1 240207Z 33005KT 27/17 A2983 RMK A01 T02650173  RH  057%=      5-min Rain = 0
KMC1 240208Z 01001KT 27/17 A2984 RMK A01 T02650172  RH  057%=      5-min Rain = 0
KMC1 240209Z 01000KT 27/17 A2984 RMK A01 T02660173  RH  057%=      5-min Rain = 0
KMC1 240210Z 02002KT 27/17 A2984 RMK A01 T02660171  RH  056%=      5-min Rain = 0
KMC1 240211Z 05004KT 27/17 A2984 RMK A01 T02660170  RH  055%=      5-min Rain = 0
KMC1 240212Z 06005KT 27/17 A2985 RMK A01 T02660169  RH  055%=      5-min Rain = 0
KMC1 240213Z 11005KT 27/16 A2985 RMK A01 T02670155  RH  050%=      5-min Rain = 0
KMC1 240214Z 14002KT 27/16 A2986 RMK A01 T02680161  RH  052%=      5-min Rain = 0
KMC1 240215Z 19001KT 27/17 A2985 RMK A01 T02680165  RH  053%=      5-min Rain = 0
KMC1 240216Z 29001KT 27/17 A2985 RMK A01 T02680165  RH  053%=      5-min Rain = 0
KMC1 240217Z 26001KT 27/17 A2984 RMK A01 T02670165  RH  054%=      5-min Rain = 0
KMC1 240218Z 17002KT 27/13 A2984 RMK A01 T02670132  RH  043%=      5-min Rain = 0
KMC1 240219Z 14003KT 27/12 A2984 RMK A01 T02710124  RH  040%=      5-min Rain = 0
KMC1 240220Z 16005KT 28/12 A2984 RMK A01 T02750124  RH  039%=      5-min Rain = 0
KMC1 240221Z 20002KT 28/12 A2984 RMK A01 T02760122  RH  038%=      5-min Rain = 0
KMC1 240222Z 23003KT 28/13 A2983 RMK A01 T02770128  RH  040%=      5-min Rain = 0
KMC1 240223Z 24003KT 28/13 A2983 RMK A01 T02780134  RH  041%=      5-min Rain = 0
KMC1 240224Z 23004KT 28/13 A2983 RMK A01 T02780128  RH  040%=      5-min Rain = 0
KMC1 240225Z 21004KT 28/12 A2982 RMK A01 T02770120  RH  038%=      5-min Rain = 0
KMC1 240226Z 16005KT 28/12 A2983 RMK A01 T02770119  RH  038%=      5-min Rain = 0
KMC1 240227Z 20007G12KT 28/12 A2983 RMK A01 T02770116  RH  037%=      5-min Rain = 0
KMC1 240228Z 21007KT 28/11 A2982 RMK A01 T02770106  RH  034%=      5-min Rain = 0
KMC1 240229Z 21003KT 28/11 A2982 RMK A01 T02790105  RH  034%=      5-min Rain = 0
KMC1 240230Z 18002KT 28/11 A2982 RMK A01 T02800107  RH  034%=      5-min Rain = 0
KMC1 240231Z 18002KT 28/11 A2982 RMK A01 T02810106  RH  034%=      5-min Rain = 0
KMC1 240232Z 23000KT 28/11 A2982 RMK A01 T02810106  RH  034%=      5-min Rain = 0
KMC1 240233Z 29002KT 28/11 A2982 RMK A01 T02810112  RH  035%=      5-min Rain = 0
KMC1 240234Z 34003KT 28/14 A2983 RMK A01 T02800137  RH  041%=      5-min Rain = 0
KMC1 240235Z 00003KT 28/14 A2983 RMK A01 T02780142  RH  043%=      5-min Rain = 0
KMC1 240236Z 36004KT 28/15 A2983 RMK A01 T02750145  RH  045%=      5-min Rain = 0
KMC1 240237Z 35003KT 27/15 A2983 RMK A01 T02720145  RH  046%=      5-min Rain = 0
KMC1 240238Z 32002KT 27/15 A2983 RMK A01 T02710146  RH  046%=      5-min Rain = 0
KMC1 240239Z 31003KT 27/14 A2983 RMK A01 T02700142  RH  045%=      5-min Rain = 0
KMC1 240240Z 33002KT 27/14 A2984 RMK A01 T02700138  RH  044%=      5-min Rain = 0
KMC1 240241Z 10002KT 27/14 A2984 RMK A01 T02700140  RH  045%=      5-min Rain = 0
KMC1 240242Z 14003KT 27/12 A2984 RMK A01 T02710117  RH  038%=      5-min Rain = 0
KMC1 240243Z 18006KT 27/12 A2984 RMK A01 T02710123  RH  040%=      5-min Rain = 0
KMC1 240244Z 16005KT 27/11 A2984 RMK A01 T02710111  RH  037%=      5-min Rain = 0
KMC1 240245Z 16006KT 27/11 A2984 RMK A01 T02710108  RH  036%=      5-min Rain = 0
KMC1 240246Z 15003KT 27/10 A2985 RMK A01 T02720101  RH  034%=      5-min Rain = 0
KMC1 240247Z 16004KT 27/10 A2985 RMK A01 T02720099  RH  034%=      5-min Rain = 0
KMC1 240248Z 17005KT 27/10 A2985 RMK A01 T02720098  RH  034%=      5-min Rain = 0
KMC1 240249Z 16004KT 27/10 A2985 RMK A01 T02730098  RH  033%=      5-min Rain = 0
KMC1 240250Z 15002KT 27/10 A2985 RMK A01 T02740099  RH  033%=      5-min Rain = 0
KMC1 240251Z 18003KT 27/10 A2985 RMK A01 T02740099  RH  033%=      5-min Rain = 0
KMC1 240252Z 20007KT 27/10 A2985 RMK A01 T02740099  RH  033%=      5-min Rain = 0
KMC1 240253Z 22006KT 27/10 A2985 RMK A01 T02740102  RH  034%=      5-min Rain = 0
KMC1 240254Z 25004KT 27/11 A2986 RMK A01 T02740106  RH  035%=      5-min Rain = 0
KMC1 240255Z 27006KT 27/11 A2986 RMK A01 T02730110  RH  036%=      5-min Rain = 0
KMC1 240256Z 27008KT 27/12 A2986 RMK A01 T02710123  RH  040%=      5-min Rain = 0
KMC1 240257Z 28009KT 27/13 A2986 RMK A01 T02690129  RH  042%=      5-min Rain = 0
KMC1 240258Z 28008KT 27/13 A2986 RMK A01 T02670131  RH  043%=      5-min Rain = 0
KMC1 240259Z 29007KT 27/13 A2986 RMK A01 T02660133  RH  044%=      5-min Rain = 0
KMC1 240300Z 32009KT 27/13 A2986 RMK A01 T02650133  RH  044%=      5-min Rain = 0
KMC1 240301Z 30007KT 26/13 A2986 RMK A01 T02640132  RH  044%=      5-min Rain = 0
KMC1 240302Z 30006KT 26/14 A2986 RMK A01 T02640136  RH  045%=      5-min Rain = 0
KMC1 240303Z 30005KT 26/14 A2986 RMK A01 T02640137  RH  045%=      5-min Rain = 0
KMC1 240304Z 29004KT 26/14 A2986 RMK A01 T02630137  RH  046%=      5-min Rain = 0
KMC1 240305Z 29003KT 26/14 A2986 RMK A01 T02620137  RH  046%=      5-min Rain = 0
KMC1 240306Z 30004KT 26/14 A2986 RMK A01 T02610137  RH  046%=      5-min Rain = 0
KMC1 240307Z 29005KT 26/14 A2986 RMK A01 T02600138  RH  047%=      5-min Rain = 0
KMC1 240308Z 29004KT 26/14 A2986 RMK A01 T02590138  RH  047%=      5-min Rain = 0
KMC1 240309Z 26004KT 26/14 A2986 RMK A01 T02570138  RH  048%=      5-min Rain = 0
KMC1 240310Z 29003KT 26/14 A2986 RMK A01 T02570137  RH  048%=      5-min Rain = 0
KMC1 240311Z 29003KT 26/14 A2986 RMK A01 T02560137  RH  048%=      5-min Rain = 0
KMC1 240312Z 26003KT 26/14 A2986 RMK A01 T02560138  RH  048%=      5-min Rain = 0
KMC1 240313Z 25003KT 26/13 A2986 RMK A01 T02550134  RH  047%=      5-min Rain = 0
KMC1 240314Z 25002KT 26/13 A2986 RMK A01 T02550132  RH  046%=      5-min Rain = 0
KMC1 240315Z 23001KT 26/13 A2986 RMK A01 T02550131  RH  046%=      5-min Rain = 0
KMC1 240316Z 19001KT 25/13 A2986 RMK A01 T02540131  RH  046%=      5-min Rain = 0
KMC1 240317Z 19006KT 25/13 A2986 RMK A01 T02540131  RH  046%=      5-min Rain = 0
KMC1 240318Z 21007KT 25/13 A2986 RMK A01 T02540128  RH  046%=      5-min Rain = 0
KMC1 240319Z 21004KT 25/13 A2986 RMK A01 T02540129  RH  046%=      5-min Rain = 0
KMC1 240320Z 23004KT 25/13 A2986 RMK A01 T02540129  RH  046%=      5-min Rain = 0
KMC1 240321Z 23003KT 25/13 A2986 RMK A01 T02540130  RH  046%=      5-min Rain = 0
KMC1 240322Z 23004KT 25/13 A2987 RMK A01 T02540131  RH  046%=      5-min Rain = 0
KMC1 240323Z 22004KT 25/13 A2987 RMK A01 T02540131  RH  047%=      5-min Rain = 0
KMC1 240324Z 22006KT 25/13 A2987 RMK A01 T02530131  RH  047%=      5-min Rain = 0
KMC1 240325Z 21006KT 25/13 A2987 RMK A01 T02530130  RH  047%=      5-min Rain = 0
KMC1 240326Z 19007KT 25/12 A2987 RMK A01 T02530119  RH  043%=      5-min Rain = 0
KMC1 240327Z 18006KT 26/11 A2987 RMK A01 T02550110  RH  040%=      5-min Rain = 0
KMC1 240328Z 16005KT 26/11 A2987 RMK A01 T02580114  RH  040%=      5-min Rain = 0
KMC1 240329Z 14007KT 26/12 A2987 RMK A01 T02590122  RH  043%=      5-min Rain = 0
KMC1 240330Z 13007KT 26/13 A2987 RMK A01 T02570125  RH  044%=      5-min Rain = 0
KMC1 240331Z 17005KT 26/12 A2987 RMK A01 T02560118  RH  042%=      5-min Rain = 0
KMC1 240332Z 20004KT 26/12 A2987 RMK A01 T02560117  RH  042%=      5-min Rain = 0
KMC1 240333Z 21004KT 26/12 A2987 RMK A01 T02560119  RH  042%=      5-min Rain = 0
KMC1 240334Z 21005KT 26/12 A2987 RMK A01 T02560119  RH  042%=      5-min Rain = 0
KMC1 240335Z 20005KT 26/12 A2987 RMK A01 T02560120  RH  043%=      5-min Rain = 0
KMC1 240336Z 19005G15KT 26/12 A2987 RMK A01 T02560121  RH  043%=      5-min Rain = 0
KMC1 240337Z 19009G15KT 26/11 A2987 RMK A01 T02570113  RH  041%=      5-min Rain = 0
KMC1 240338Z 18008KT 26/11 A2986 RMK A01 T02580110  RH  040%=      5-min Rain = 0
KMC1 240339Z 15008KT 26/11 A2986 RMK A01 T02580112  RH  040%=      5-min Rain = 0
KMC1 240340Z 19003KT 26/11 A2986 RMK A01 T02590112  RH  040%=      5-min Rain = 0
KMC1 240341Z 17003KT 26/11 A2986 RMK A01 T02580114  RH  040%=      5-min Rain = 0
KMC1 240342Z 15006KT 26/11 A2986 RMK A01 T02570114  RH  041%=      5-min Rain = 0
KMC1 240343Z 15007KT 26/11 A2986 RMK A01 T02560110  RH  040%=      5-min Rain = 0
KMC1 240344Z 18007KT 26/11 A2986 RMK A01 T02560109  RH  040%=      5-min Rain = 0
KMC1 240345Z 17007KT 26/11 A2986 RMK A01 T02560108  RH  040%=      5-min Rain = 0
KMC1 240346Z 17008KT 26/11 A2986 RMK A01 T02550106  RH  039%=      5-min Rain = 0
KMC1 240347Z 18008KT 26/11 A2986 RMK A01 T02550106  RH  039%=      5-min Rain = 0
KMC1 240348Z 18007KT 26/11 A2986 RMK A01 T02550106  RH  039%=      5-min Rain = 0
KMC1 240349Z 17008KT 25/11 A2986 RMK A01 T02540106  RH  039%=      5-min Rain = 0
KMC1 240350Z 17008KT 25/11 A2986 RMK A01 T02530105  RH  039%=      5-min Rain = 0
KMC1 240351Z 16005KT 25/11 A2986 RMK A01 T02530106  RH  040%=      5-min Rain = 0
KMC1 240352Z 16006KT 25/11 A2986 RMK A01 T02510105  RH  040%=      5-min Rain = 0
KMC1 240353Z 15006KT 25/11 A2986 RMK A01 T02500105  RH  040%=      5-min Rain = 0
KMC1 240354Z 17007KT 25/11 A2986 RMK A01 T02500105  RH  040%=      5-min Rain = 0
KMC1 240355Z 16006KT 25/11 A2986 RMK A01 T02490105  RH  040%=      5-min Rain = 0
KMC1 240356Z 16006KT 25/11 A2985 RMK A01 T02490106  RH  041%=      5-min Rain = 0
KMC1 240357Z 16004KT 25/11 A2985 RMK A01 T02480106  RH  041%=      5-min Rain = 0
KMC1 240358Z 17004KT 25/11 A2986 RMK A01 T02480105  RH  041%=      5-min Rain = 0
KMC1 240359Z 17003KT 25/11 A2985 RMK A01 T02470105  RH  041%=      5-min Rain = 0
KMC1 240400Z 18001KT 25/11 A2985 RMK A01 T02470106  RH  041%=      5-min Rain = 0
KMC1 240401Z 14000KT 25/11 A2985 RMK A01 T02470107  RH  041%=      5-min Rain = 0
KMC1 240402Z 12001KT 25/11 A2985 RMK A01 T02460106  RH  041%=      5-min Rain = 0
KMC1 240403Z 09001KT 25/11 A2985 RMK A01 T02450106  RH  041%=      5-min Rain = 0
KMC1 240404Z 10001KT 25/11 A2985 RMK A01 T02450106  RH  042%=      5-min Rain = 0
KMC1 240405Z 07002KT 25/11 A2985 RMK A01 T02450107  RH  042%=      5-min Rain = 0
KMC1 240406Z 09001KT 24/11 A2985 RMK A01 T02440108  RH  042%=      5-min Rain = 0
KMC1 240407Z 05002KT 24/11 A2985 RMK A01 T02430106  RH  042%=      5-min Rain = 0
KMC1 240408Z 04003KT 24/11 A2985 RMK A01 T02430107  RH  042%=      5-min Rain = 0
KMC1 240409Z 04003KT 24/11 A2985 RMK A01 T02420109  RH  043%=      5-min Rain = 0
KMC1 240410Z 05002KT 24/11 A2985 RMK A01 T02420108  RH  043%=      5-min Rain = 0
KMC1 240411Z 10002KT 24/11 A2985 RMK A01 T02410108  RH  043%=      5-min Rain = 0
KMC1 240412Z 06001KT 24/11 A2985 RMK A01 T02410106  RH  043%=      5-min Rain = 0
KMC1 240413Z 08000KT 24/11 A2985 RMK A01 T02410107  RH  043%=      5-min Rain = 0
KMC1 240414Z 22001KT 24/11 A2985 RMK A01 T02410108  RH  043%=      5-min Rain = 0
KMC1 240415Z 23003KT 24/11 A2986 RMK A01 T02400111  RH  044%=      5-min Rain = 0
KMC1 240416Z 21003KT 24/11 A2986 RMK A01 T02390109  RH  044%=      5-min Rain = 0
KMC1 240417Z 21004KT 24/11 A2986 RMK A01 T02390110  RH  044%=      5-min Rain = 0
KMC1 240418Z 23004KT 24/11 A2986 RMK A01 T02380109  RH  044%=      5-min Rain = 0
KMC1 240419Z 24004KT 24/11 A2986 RMK A01 T02380109  RH  044%=      5-min Rain = 0
KMC1 240420Z 25003KT 24/11 A2986 RMK A01 T02370110  RH  045%=      5-min Rain = 0
KMC1 240421Z 24003KT 24/11 A2986 RMK A01 T02360110  RH  045%=      5-min Rain = 0
KMC1 240422Z 23002KT 24/11 A2986 RMK A01 T02350110  RH  045%=      5-min Rain = 0
KMC1 240423Z 24002KT 24/11 A2986 RMK A01 T02350110  RH  045%=      5-min Rain = 0
KMC1 240424Z 25002KT 24/11 A2986 RMK A01 T02350109  RH  045%=      5-min Rain = 0
KMC1 240425Z 24002KT 23/11 A2986 RMK A01 T02340109  RH  045%=      5-min Rain = 0
KMC1 240426Z 20001KT 23/11 A2986 RMK A01 T02340110  RH  046%=      5-min Rain = 0
KMC1 240427Z 22002KT 23/11 A2986 RMK A01 T02340109  RH  045%=      5-min Rain = 0
KMC1 240428Z 24002KT 23/11 A2986 RMK A01 T02340109  RH  045%=      5-min Rain = 0
KMC1 240429Z 23001KT 23/11 A2986 RMK A01 T02340108  RH  045%=      5-min Rain = 0
KMC1 240430Z 21000KT 23/11 A2986 RMK A01 T02340110  RH  046%=      5-min Rain = 0
KMC1 240431Z 16000KT 23/11 A2985 RMK A01 T02330110  RH  046%=      5-min Rain = 0
KMC1 240432Z 20001KT 23/11 A2985 RMK A01 T02330108  RH  045%=      5-min Rain = 0
KMC1 240433Z 20001KT 23/11 A2985 RMK A01 T02330108  RH  045%=      5-min Rain = 0
KMC1 240434Z 19001KT 23/11 A2985 RMK A01 T02330110  RH  046%=      5-min Rain = 0
KMC1 240435Z 20002KT 23/11 A2985 RMK A01 T02320109  RH  046%=      5-min Rain = 0
KMC1 240436Z 20001KT 23/11 A2985 RMK A01 T02320109  RH  046%=      5-min Rain = 0
KMC1 240437Z 18001KT 23/11 A2985 RMK A01 T02310108  RH  046%=      5-min Rain = 0
KMC1 240438Z 17002KT 23/11 A2985 RMK A01 T02320109  RH  046%=      5-min Rain = 0
KMC1 240439Z 17002KT 23/11 A2985 RMK A01 T02320111  RH  047%=      5-min Rain = 0
KMC1 240440Z 17001KT 23/11 A2985 RMK A01 T02310110  RH  046%=      5-min Rain = 0
KMC1 240441Z 19001KT 23/11 A2985 RMK A01 T02310110  RH  047%=      5-min Rain = 0
KMC1 240442Z 24001KT 23/11 A2985 RMK A01 T02300111  RH  047%=      5-min Rain = 0
KMC1 240443Z 23000KT 23/11 A2984 RMK A01 T02300110  RH  047%=      5-min Rain = 0
KMC1 240444Z 06000KT 23/11 A2984 RMK A01 T02300109  RH  047%=      5-min Rain = 0
KMC1 240445Z 08001KT 23/11 A2984 RMK A01 T02300109  RH  046%=      5-min Rain = 0
KMC1 240446Z 09001KT 23/11 A2984 RMK A01 T02300110  RH  047%=      5-min Rain = 0
KMC1 240447Z 12001KT 23/11 A2984 RMK A01 T02290110  RH  047%=      5-min Rain = 0
KMC1 240448Z 12001KT 23/11 A2985 RMK A01 T02290113  RH  048%=      5-min Rain = 0
KMC1 240449Z 13001KT 23/11 A2985 RMK A01 T02270113  RH  049%=      5-min Rain = 0
KMC1 240450Z 14001KT 23/11 A2985 RMK A01 T02260112  RH  049%=      5-min Rain = 0
KMC1 240451Z 15002KT 23/11 A2985 RMK A01 T02250112  RH  049%=      5-min Rain = 0
KMC1 240452Z 17003KT 23/11 A2985 RMK A01 T02250111  RH  049%=      5-min Rain = 0
KMC1 240453Z 18004KT 23/11 A2985 RMK A01 T02250114  RH  049%=      5-min Rain = 0
KMC1 240454Z 19004KT 22/12 A2985 RMK A01 T02230116  RH  051%=      5-min Rain = 0
KMC1 240455Z 20004KT 22/12 A2985 RMK A01 T02210117  RH  052%=      5-min Rain = 0
KMC1 240456Z 20003KT 22/12 A2985 RMK A01 T02200117  RH  052%=      5-min Rain = 0
KMC1 240457Z 20003KT 22/12 A2985 RMK A01 T02190115  RH  052%=      5-min Rain = 0
KMC1 240458Z 20003KT 22/11 A2985 RMK A01 T02190114  RH  051%=      5-min Rain = 0
KMC1 240459Z 19003KT 22/11 A2985 RMK A01 T02190113  RH  051%=      5-min Rain = 0

Page generated in 0.1702 seconds.